<?xml version="1.0" encoding="UTF-8" standalone="no" ?>
<gpx xmlns="http://www.topografix.com/GPX/1/1" xmlns:xsi="http://www.w3.org/2001/XMLSchema-instance" xsi:schemaLocation="http://www.topografix.com/GPX/1/1 http://www.topografix.com/GPX/1/1/gpx.xsd" version="1.1" creator="VisuGPX - https://www.visugpx.com">
  <metadata>
    <name>La ronde des pins</name>
    <desc><![CDATA[Une belle balade de 8km sur des chemins propres et larges, avec de nombreuses parties ombragées. Les cotes sont faibles, à la portée de tout marcheur.]]></desc>
  </metadata>
  <trk>
    <name><![CDATA[Tracé actuel: 25 SEP 2012 14:38]]></name>
    <trkseg>
      <trkpt lat="43.38957" lon="-0.1905">
        <ele>315.93</ele>
        <time>2012-09-25T12:38:47Z</time>
      </trkpt>
      <trkpt lat="43.38967" lon="-0.1906">
        <ele>318.81</ele>
        <time>2012-09-25T12:39:05Z</time>
      </trkpt>
      <trkpt lat="43.38976" lon="-0.1905">
        <ele>318.33</ele>
        <time>2012-09-25T12:39:13Z</time>
      </trkpt>
      <trkpt lat="43.38983" lon="-0.1904">
        <ele>317.85</ele>
        <time>2012-09-25T12:39:21Z</time>
      </trkpt>
      <trkpt lat="43.3899" lon="-0.19031">
        <ele>318.33</ele>
        <time>2012-09-25T12:39:32Z</time>
      </trkpt>
      <trkpt lat="43.38999" lon="-0.19024">
        <ele>317.85</ele>
        <time>2012-09-25T12:39:41Z</time>
      </trkpt>
      <trkpt lat="43.39008" lon="-0.19026">
        <ele>317.37</ele>
        <time>2012-09-25T12:39:50Z</time>
      </trkpt>
      <trkpt lat="43.39018" lon="-0.19035">
        <ele>316.89</ele>
        <time>2012-09-25T12:40:00Z</time>
      </trkpt>
      <trkpt lat="43.39025" lon="-0.19046">
        <ele>316.41</ele>
        <time>2012-09-25T12:40:09Z</time>
      </trkpt>
      <trkpt lat="43.39034" lon="-0.19053">
        <ele>316.41</ele>
        <time>2012-09-25T12:40:18Z</time>
      </trkpt>
      <trkpt lat="43.39043" lon="-0.19062">
        <ele>315.93</ele>
        <time>2012-09-25T12:40:27Z</time>
      </trkpt>
      <trkpt lat="43.39051" lon="-0.19071">
        <ele>315.45</ele>
        <time>2012-09-25T12:40:36Z</time>
      </trkpt>
      <trkpt lat="43.39057" lon="-0.19081">
        <ele>314.97</ele>
        <time>2012-09-25T12:40:46Z</time>
      </trkpt>
      <trkpt lat="43.39066" lon="-0.19091">
        <ele>314.97</ele>
        <time>2012-09-25T12:40:58Z</time>
      </trkpt>
      <trkpt lat="43.39075" lon="-0.191">
        <ele>314.01</ele>
        <time>2012-09-25T12:41:08Z</time>
      </trkpt>
      <trkpt lat="43.39084" lon="-0.19113">
        <ele>313.05</ele>
        <time>2012-09-25T12:41:20Z</time>
      </trkpt>
      <trkpt lat="43.39092" lon="-0.19129">
        <ele>312.57</ele>
        <time>2012-09-25T12:41:32Z</time>
      </trkpt>
      <trkpt lat="43.39101" lon="-0.19144">
        <ele>312.57</ele>
        <time>2012-09-25T12:41:44Z</time>
      </trkpt>
      <trkpt lat="43.39109" lon="-0.19157">
        <ele>312.09</ele>
        <time>2012-09-25T12:41:56Z</time>
      </trkpt>
      <trkpt lat="43.39115" lon="-0.19166">
        <ele>311.12</ele>
        <time>2012-09-25T12:42:06Z</time>
      </trkpt>
      <trkpt lat="43.39122" lon="-0.19179">
        <ele>310.64</ele>
        <time>2012-09-25T12:42:18Z</time>
      </trkpt>
      <trkpt lat="43.39129" lon="-0.19191">
        <ele>310.16</ele>
        <time>2012-09-25T12:42:30Z</time>
      </trkpt>
      <trkpt lat="43.39137" lon="-0.19201">
        <ele>308.72</ele>
        <time>2012-09-25T12:42:40Z</time>
      </trkpt>
      <trkpt lat="43.39148" lon="-0.1921">
        <ele>308.72</ele>
        <time>2012-09-25T12:42:51Z</time>
      </trkpt>
      <trkpt lat="43.39158" lon="-0.1922">
        <ele>307.76</ele>
        <time>2012-09-25T12:43:03Z</time>
      </trkpt>
      <trkpt lat="43.39169" lon="-0.19228">
        <ele>307.28</ele>
        <time>2012-09-25T12:43:14Z</time>
      </trkpt>
      <trkpt lat="43.3918" lon="-0.19237">
        <ele>306.8</ele>
        <time>2012-09-25T12:43:25Z</time>
      </trkpt>
      <trkpt lat="43.39188" lon="-0.19245">
        <ele>306.32</ele>
        <time>2012-09-25T12:43:36Z</time>
      </trkpt>
      <trkpt lat="43.39197" lon="-0.19254">
        <ele>305.36</ele>
        <time>2012-09-25T12:43:47Z</time>
      </trkpt>
      <trkpt lat="43.39208" lon="-0.19262">
        <ele>305.36</ele>
        <time>2012-09-25T12:43:58Z</time>
      </trkpt>
      <trkpt lat="43.39217" lon="-0.19267">
        <ele>304.39</ele>
        <time>2012-09-25T12:44:09Z</time>
      </trkpt>
      <trkpt lat="43.39227" lon="-0.19272">
        <ele>303.91</ele>
        <time>2012-09-25T12:44:20Z</time>
      </trkpt>
      <trkpt lat="43.39238" lon="-0.19275">
        <ele>303.91</ele>
        <time>2012-09-25T12:44:30Z</time>
      </trkpt>
      <trkpt lat="43.39249" lon="-0.19279">
        <ele>302.95</ele>
        <time>2012-09-25T12:44:40Z</time>
      </trkpt>
      <trkpt lat="43.3926" lon="-0.19283">
        <ele>302.47</ele>
        <time>2012-09-25T12:44:51Z</time>
      </trkpt>
      <trkpt lat="43.39272" lon="-0.19282">
        <ele>301.99</ele>
        <time>2012-09-25T12:45:01Z</time>
      </trkpt>
      <trkpt lat="43.39283" lon="-0.1928">
        <ele>301.51</ele>
        <time>2012-09-25T12:45:11Z</time>
      </trkpt>
      <trkpt lat="43.39293" lon="-0.19279">
        <ele>301.03</ele>
        <time>2012-09-25T12:45:21Z</time>
      </trkpt>
      <trkpt lat="43.39303" lon="-0.19277">
        <ele>300.55</ele>
        <time>2012-09-25T12:45:31Z</time>
      </trkpt>
      <trkpt lat="43.39313" lon="-0.19275">
        <ele>300.55</ele>
        <time>2012-09-25T12:45:39Z</time>
      </trkpt>
      <trkpt lat="43.39322" lon="-0.19273">
        <ele>299.59</ele>
        <time>2012-09-25T12:45:48Z</time>
      </trkpt>
      <trkpt lat="43.3933" lon="-0.1927">
        <ele>299.11</ele>
        <time>2012-09-25T12:45:58Z</time>
      </trkpt>
      <trkpt lat="43.3934" lon="-0.19267">
        <ele>298.15</ele>
        <time>2012-09-25T12:46:10Z</time>
      </trkpt>
      <trkpt lat="43.39351" lon="-0.19262">
        <ele>298.63</ele>
        <time>2012-09-25T12:46:21Z</time>
      </trkpt>
      <trkpt lat="43.39362" lon="-0.19259">
        <ele>297.18</ele>
        <time>2012-09-25T12:46:31Z</time>
      </trkpt>
      <trkpt lat="43.39372" lon="-0.19251">
        <ele>296.7</ele>
        <time>2012-09-25T12:46:41Z</time>
      </trkpt>
      <trkpt lat="43.39379" lon="-0.19241">
        <ele>296.22</ele>
        <time>2012-09-25T12:46:50Z</time>
      </trkpt>
      <trkpt lat="43.39387" lon="-0.19233">
        <ele>296.22</ele>
        <time>2012-09-25T12:46:59Z</time>
      </trkpt>
      <trkpt lat="43.39395" lon="-0.19222">
        <ele>295.26</ele>
        <time>2012-09-25T12:47:09Z</time>
      </trkpt>
      <trkpt lat="43.39403" lon="-0.19213">
        <ele>294.78</ele>
        <time>2012-09-25T12:47:19Z</time>
      </trkpt>
      <trkpt lat="43.39411" lon="-0.19204">
        <ele>294.78</ele>
        <time>2012-09-25T12:47:28Z</time>
      </trkpt>
      <trkpt lat="43.39419" lon="-0.19194">
        <ele>294.3</ele>
        <time>2012-09-25T12:47:37Z</time>
      </trkpt>
      <trkpt lat="43.39428" lon="-0.19185">
        <ele>293.82</ele>
        <time>2012-09-25T12:47:47Z</time>
      </trkpt>
      <trkpt lat="43.39435" lon="-0.19177">
        <ele>292.86</ele>
        <time>2012-09-25T12:47:56Z</time>
      </trkpt>
      <trkpt lat="43.39443" lon="-0.19166">
        <ele>292.38</ele>
        <time>2012-09-25T12:48:05Z</time>
      </trkpt>
      <trkpt lat="43.39451" lon="-0.19156">
        <ele>292.38</ele>
        <time>2012-09-25T12:48:14Z</time>
      </trkpt>
      <trkpt lat="43.39458" lon="-0.19148">
        <ele>291.9</ele>
        <time>2012-09-25T12:48:23Z</time>
      </trkpt>
      <trkpt lat="43.39463" lon="-0.19135">
        <ele>290.94</ele>
        <time>2012-09-25T12:48:33Z</time>
      </trkpt>
      <trkpt lat="43.39467" lon="-0.19122">
        <ele>290.46</ele>
        <time>2012-09-25T12:48:43Z</time>
      </trkpt>
      <trkpt lat="43.39471" lon="-0.19111">
        <ele>290.46</ele>
        <time>2012-09-25T12:48:53Z</time>
      </trkpt>
      <trkpt lat="43.39475" lon="-0.19098">
        <ele>289.97</ele>
        <time>2012-09-25T12:49:03Z</time>
      </trkpt>
      <trkpt lat="43.39479" lon="-0.19085">
        <ele>289.49</ele>
        <time>2012-09-25T12:49:13Z</time>
      </trkpt>
      <trkpt lat="43.39485" lon="-0.19073">
        <ele>289.49</ele>
        <time>2012-09-25T12:49:22Z</time>
      </trkpt>
      <trkpt lat="43.39491" lon="-0.19062">
        <ele>289.01</ele>
        <time>2012-09-25T12:49:31Z</time>
      </trkpt>
      <trkpt lat="43.39496" lon="-0.19053">
        <ele>288.05</ele>
        <time>2012-09-25T12:49:39Z</time>
      </trkpt>
      <trkpt lat="43.39501" lon="-0.19044">
        <ele>288.05</ele>
        <time>2012-09-25T12:49:48Z</time>
      </trkpt>
      <trkpt lat="43.39506" lon="-0.19031">
        <ele>287.57</ele>
        <time>2012-09-25T12:49:57Z</time>
      </trkpt>
      <trkpt lat="43.39511" lon="-0.1902">
        <ele>287.09</ele>
        <time>2012-09-25T12:50:07Z</time>
      </trkpt>
      <trkpt lat="43.39518" lon="-0.19005">
        <ele>286.61</ele>
        <time>2012-09-25T12:50:18Z</time>
      </trkpt>
      <trkpt lat="43.39521" lon="-0.18993">
        <ele>286.61</ele>
        <time>2012-09-25T12:50:27Z</time>
      </trkpt>
      <trkpt lat="43.39525" lon="-0.1898">
        <ele>285.65</ele>
        <time>2012-09-25T12:50:36Z</time>
      </trkpt>
      <trkpt lat="43.39529" lon="-0.18968">
        <ele>285.65</ele>
        <time>2012-09-25T12:50:46Z</time>
      </trkpt>
      <trkpt lat="43.39532" lon="-0.18954">
        <ele>285.17</ele>
        <time>2012-09-25T12:50:55Z</time>
      </trkpt>
      <trkpt lat="43.39533" lon="-0.18941">
        <ele>284.21</ele>
        <time>2012-09-25T12:51:04Z</time>
      </trkpt>
      <trkpt lat="43.39533" lon="-0.18928">
        <ele>283.73</ele>
        <time>2012-09-25T12:51:13Z</time>
      </trkpt>
      <trkpt lat="43.39532" lon="-0.18915">
        <ele>283.25</ele>
        <time>2012-09-25T12:51:22Z</time>
      </trkpt>
      <trkpt lat="43.39531" lon="-0.18901">
        <ele>282.77</ele>
        <time>2012-09-25T12:51:31Z</time>
      </trkpt>
      <trkpt lat="43.39525" lon="-0.18889">
        <ele>281.8</ele>
        <time>2012-09-25T12:51:40Z</time>
      </trkpt>
      <trkpt lat="43.39518" lon="-0.18877">
        <ele>281.32</ele>
        <time>2012-09-25T12:51:49Z</time>
      </trkpt>
      <trkpt lat="43.3951" lon="-0.18868">
        <ele>280.84</ele>
        <time>2012-09-25T12:51:58Z</time>
      </trkpt>
      <trkpt lat="43.39502" lon="-0.1886">
        <ele>280.84</ele>
        <time>2012-09-25T12:52:07Z</time>
      </trkpt>
      <trkpt lat="43.39492" lon="-0.18852">
        <ele>280.36</ele>
        <time>2012-09-25T12:52:16Z</time>
      </trkpt>
      <trkpt lat="43.39484" lon="-0.18847">
        <ele>279.88</ele>
        <time>2012-09-25T12:52:24Z</time>
      </trkpt>
      <trkpt lat="43.39475" lon="-0.18844">
        <ele>279.4</ele>
        <time>2012-09-25T12:52:32Z</time>
      </trkpt>
      <trkpt lat="43.39465" lon="-0.18843">
        <ele>278.92</ele>
        <time>2012-09-25T12:52:41Z</time>
      </trkpt>
      <trkpt lat="43.39456" lon="-0.18843">
        <ele>278.92</ele>
        <time>2012-09-25T12:52:49Z</time>
      </trkpt>
      <trkpt lat="43.39446" lon="-0.18845">
        <ele>278.92</ele>
        <time>2012-09-25T12:52:58Z</time>
      </trkpt>
      <trkpt lat="43.39435" lon="-0.18847">
        <ele>279.88</ele>
        <time>2012-09-25T12:53:06Z</time>
      </trkpt>
      <trkpt lat="43.39424" lon="-0.18851">
        <ele>280.36</ele>
        <time>2012-09-25T12:53:15Z</time>
      </trkpt>
      <trkpt lat="43.39416" lon="-0.18846">
        <ele>280.36</ele>
        <time>2012-09-25T12:53:25Z</time>
      </trkpt>
      <trkpt lat="43.39407" lon="-0.18842">
        <ele>280.36</ele>
        <time>2012-09-25T12:53:34Z</time>
      </trkpt>
      <trkpt lat="43.39397" lon="-0.18837">
        <ele>280.84</ele>
        <time>2012-09-25T12:53:44Z</time>
      </trkpt>
      <trkpt lat="43.39387" lon="-0.18832">
        <ele>281.32</ele>
        <time>2012-09-25T12:53:54Z</time>
      </trkpt>
      <trkpt lat="43.39378" lon="-0.18828">
        <ele>282.28</ele>
        <time>2012-09-25T12:54:03Z</time>
      </trkpt>
      <trkpt lat="43.39368" lon="-0.18825">
        <ele>282.77</ele>
        <time>2012-09-25T12:54:12Z</time>
      </trkpt>
      <trkpt lat="43.39358" lon="-0.18821">
        <ele>282.77</ele>
        <time>2012-09-25T12:54:21Z</time>
      </trkpt>
      <trkpt lat="43.39348" lon="-0.18817">
        <ele>282.77</ele>
        <time>2012-09-25T12:54:30Z</time>
      </trkpt>
      <trkpt lat="43.39339" lon="-0.18813">
        <ele>282.28</ele>
        <time>2012-09-25T12:54:39Z</time>
      </trkpt>
      <trkpt lat="43.3933" lon="-0.18808">
        <ele>282.28</ele>
        <time>2012-09-25T12:54:48Z</time>
      </trkpt>
      <trkpt lat="43.39319" lon="-0.18803">
        <ele>282.77</ele>
        <time>2012-09-25T12:54:58Z</time>
      </trkpt>
      <trkpt lat="43.3931" lon="-0.18797">
        <ele>282.77</ele>
        <time>2012-09-25T12:55:07Z</time>
      </trkpt>
      <trkpt lat="43.39302" lon="-0.18791">
        <ele>282.77</ele>
        <time>2012-09-25T12:55:15Z</time>
      </trkpt>
      <trkpt lat="43.39292" lon="-0.18785">
        <ele>282.77</ele>
        <time>2012-09-25T12:55:24Z</time>
      </trkpt>
      <trkpt lat="43.39284" lon="-0.1878">
        <ele>283.25</ele>
        <time>2012-09-25T12:55:32Z</time>
      </trkpt>
      <trkpt lat="43.39276" lon="-0.18775">
        <ele>282.77</ele>
        <time>2012-09-25T12:55:40Z</time>
      </trkpt>
      <trkpt lat="43.39267" lon="-0.18769">
        <ele>282.28</ele>
        <time>2012-09-25T12:55:48Z</time>
      </trkpt>
      <trkpt lat="43.39258" lon="-0.18763">
        <ele>281.8</ele>
        <time>2012-09-25T12:55:57Z</time>
      </trkpt>
      <trkpt lat="43.3925" lon="-0.18757">
        <ele>281.8</ele>
        <time>2012-09-25T12:56:06Z</time>
      </trkpt>
      <trkpt lat="43.3924" lon="-0.18749">
        <ele>281.8</ele>
        <time>2012-09-25T12:56:15Z</time>
      </trkpt>
      <trkpt lat="43.39233" lon="-0.18742">
        <ele>281.8</ele>
        <time>2012-09-25T12:56:23Z</time>
      </trkpt>
      <trkpt lat="43.39224" lon="-0.18737">
        <ele>282.28</ele>
        <time>2012-09-25T12:56:31Z</time>
      </trkpt>
      <trkpt lat="43.39215" lon="-0.18729">
        <ele>282.28</ele>
        <time>2012-09-25T12:56:40Z</time>
      </trkpt>
      <trkpt lat="43.39206" lon="-0.18723">
        <ele>282.77</ele>
        <time>2012-09-25T12:56:48Z</time>
      </trkpt>
      <trkpt lat="43.39197" lon="-0.18718">
        <ele>282.77</ele>
        <time>2012-09-25T12:56:57Z</time>
      </trkpt>
      <trkpt lat="43.39188" lon="-0.18711">
        <ele>282.77</ele>
        <time>2012-09-25T12:57:06Z</time>
      </trkpt>
      <trkpt lat="43.39179" lon="-0.18705">
        <ele>282.77</ele>
        <time>2012-09-25T12:57:14Z</time>
      </trkpt>
      <trkpt lat="43.3917" lon="-0.187">
        <ele>282.28</ele>
        <time>2012-09-25T12:57:22Z</time>
      </trkpt>
      <trkpt lat="43.39162" lon="-0.18696">
        <ele>282.28</ele>
        <time>2012-09-25T12:57:30Z</time>
      </trkpt>
      <trkpt lat="43.39153" lon="-0.18691">
        <ele>282.77</ele>
        <time>2012-09-25T12:57:39Z</time>
      </trkpt>
      <trkpt lat="43.39143" lon="-0.18686">
        <ele>283.25</ele>
        <time>2012-09-25T12:57:47Z</time>
      </trkpt>
      <trkpt lat="43.39135" lon="-0.18681">
        <ele>283.73</ele>
        <time>2012-09-25T12:57:56Z</time>
      </trkpt>
      <trkpt lat="43.39126" lon="-0.18676">
        <ele>284.21</ele>
        <time>2012-09-25T12:58:04Z</time>
      </trkpt>
      <trkpt lat="43.39117" lon="-0.18672">
        <ele>284.21</ele>
        <time>2012-09-25T12:58:12Z</time>
      </trkpt>
      <trkpt lat="43.39107" lon="-0.18666">
        <ele>284.69</ele>
        <time>2012-09-25T12:58:21Z</time>
      </trkpt>
      <trkpt lat="43.39098" lon="-0.18663">
        <ele>284.69</ele>
        <time>2012-09-25T12:58:29Z</time>
      </trkpt>
      <trkpt lat="43.39089" lon="-0.1866">
        <ele>284.69</ele>
        <time>2012-09-25T12:58:38Z</time>
      </trkpt>
      <trkpt lat="43.39079" lon="-0.18656">
        <ele>284.69</ele>
        <time>2012-09-25T12:58:47Z</time>
      </trkpt>
      <trkpt lat="43.3907" lon="-0.18651">
        <ele>284.69</ele>
        <time>2012-09-25T12:58:56Z</time>
      </trkpt>
      <trkpt lat="43.3906" lon="-0.18643">
        <ele>284.69</ele>
        <time>2012-09-25T12:59:05Z</time>
      </trkpt>
      <trkpt lat="43.39057" lon="-0.18632">
        <ele>284.21</ele>
        <time>2012-09-25T12:59:14Z</time>
      </trkpt>
      <trkpt lat="43.39059" lon="-0.18622">
        <ele>283.73</ele>
        <time>2012-09-25T12:59:24Z</time>
      </trkpt>
      <trkpt lat="43.39068" lon="-0.18616">
        <ele>282.77</ele>
        <time>2012-09-25T12:59:35Z</time>
      </trkpt>
      <trkpt lat="43.3908" lon="-0.18615">
        <ele>281.8</ele>
        <time>2012-09-25T12:59:45Z</time>
      </trkpt>
      <trkpt lat="43.39092" lon="-0.18613">
        <ele>280.84</ele>
        <time>2012-09-25T12:59:55Z</time>
      </trkpt>
      <trkpt lat="43.39102" lon="-0.18608">
        <ele>280.36</ele>
        <time>2012-09-25T13:00:05Z</time>
      </trkpt>
      <trkpt lat="43.39112" lon="-0.18603">
        <ele>278.92</ele>
        <time>2012-09-25T13:00:16Z</time>
      </trkpt>
      <trkpt lat="43.3912" lon="-0.18597">
        <ele>278.44</ele>
        <time>2012-09-25T13:00:27Z</time>
      </trkpt>
      <trkpt lat="43.39132" lon="-0.18589">
        <ele>277.48</ele>
        <time>2012-09-25T13:00:38Z</time>
      </trkpt>
      <trkpt lat="43.39142" lon="-0.18578">
        <ele>276.04</ele>
        <time>2012-09-25T13:00:50Z</time>
      </trkpt>
      <trkpt lat="43.3915" lon="-0.18569">
        <ele>274.59</ele>
        <time>2012-09-25T13:01:01Z</time>
      </trkpt>
      <trkpt lat="43.39159" lon="-0.18559">
        <ele>273.15</ele>
        <time>2012-09-25T13:01:13Z</time>
      </trkpt>
      <trkpt lat="43.39165" lon="-0.18548">
        <ele>272.19</ele>
        <time>2012-09-25T13:01:23Z</time>
      </trkpt>
      <trkpt lat="43.39168" lon="-0.18532">
        <ele>271.23</ele>
        <time>2012-09-25T13:01:34Z</time>
      </trkpt>
      <trkpt lat="43.39166" lon="-0.18518">
        <ele>270.27</ele>
        <time>2012-09-25T13:01:45Z</time>
      </trkpt>
      <trkpt lat="43.3916" lon="-0.18505">
        <ele>270.27</ele>
        <time>2012-09-25T13:01:56Z</time>
      </trkpt>
      <trkpt lat="43.39154" lon="-0.18493">
        <ele>269.31</ele>
        <time>2012-09-25T13:02:05Z</time>
      </trkpt>
      <trkpt lat="43.39146" lon="-0.18482">
        <ele>269.31</ele>
        <time>2012-09-25T13:02:16Z</time>
      </trkpt>
      <trkpt lat="43.39138" lon="-0.18466">
        <ele>269.79</ele>
        <time>2012-09-25T13:02:26Z</time>
      </trkpt>
      <trkpt lat="43.39127" lon="-0.18458">
        <ele>270.27</ele>
        <time>2012-09-25T13:02:35Z</time>
      </trkpt>
      <trkpt lat="43.39117" lon="-0.18454">
        <ele>270.27</ele>
        <time>2012-09-25T13:02:45Z</time>
      </trkpt>
      <trkpt lat="43.39107" lon="-0.18446">
        <ele>270.75</ele>
        <time>2012-09-25T13:02:55Z</time>
      </trkpt>
      <trkpt lat="43.39103" lon="-0.18434">
        <ele>270.27</ele>
        <time>2012-09-25T13:03:05Z</time>
      </trkpt>
      <trkpt lat="43.39102" lon="-0.1842">
        <ele>270.75</ele>
        <time>2012-09-25T13:03:14Z</time>
      </trkpt>
      <trkpt lat="43.39101" lon="-0.18406">
        <ele>271.23</ele>
        <time>2012-09-25T13:03:23Z</time>
      </trkpt>
      <trkpt lat="43.39094" lon="-0.18395">
        <ele>270.75</ele>
        <time>2012-09-25T13:03:32Z</time>
      </trkpt>
      <trkpt lat="43.39084" lon="-0.18388">
        <ele>271.71</ele>
        <time>2012-09-25T13:03:41Z</time>
      </trkpt>
      <trkpt lat="43.39073" lon="-0.18384">
        <ele>271.23</ele>
        <time>2012-09-25T13:03:50Z</time>
      </trkpt>
      <trkpt lat="43.39062" lon="-0.18379">
        <ele>271.71</ele>
        <time>2012-09-25T13:04:00Z</time>
      </trkpt>
      <trkpt lat="43.39053" lon="-0.18376">
        <ele>272.19</ele>
        <time>2012-09-25T13:04:10Z</time>
      </trkpt>
      <trkpt lat="43.39043" lon="-0.18371">
        <ele>272.19</ele>
        <time>2012-09-25T13:04:20Z</time>
      </trkpt>
      <trkpt lat="43.39033" lon="-0.18369">
        <ele>272.19</ele>
        <time>2012-09-25T13:04:30Z</time>
      </trkpt>
      <trkpt lat="43.39023" lon="-0.18369">
        <ele>272.19</ele>
        <time>2012-09-25T13:04:39Z</time>
      </trkpt>
      <trkpt lat="43.39013" lon="-0.18374">
        <ele>272.67</ele>
        <time>2012-09-25T13:04:49Z</time>
      </trkpt>
      <trkpt lat="43.39004" lon="-0.18379">
        <ele>272.67</ele>
        <time>2012-09-25T13:04:58Z</time>
      </trkpt>
      <trkpt lat="43.38995" lon="-0.18384">
        <ele>273.15</ele>
        <time>2012-09-25T13:05:08Z</time>
      </trkpt>
      <trkpt lat="43.38984" lon="-0.18391">
        <ele>273.15</ele>
        <time>2012-09-25T13:05:19Z</time>
      </trkpt>
      <trkpt lat="43.38973" lon="-0.18401">
        <ele>273.15</ele>
        <time>2012-09-25T13:05:29Z</time>
      </trkpt>
      <trkpt lat="43.38963" lon="-0.18408">
        <ele>273.63</ele>
        <time>2012-09-25T13:05:39Z</time>
      </trkpt>
      <trkpt lat="43.38954" lon="-0.18415">
        <ele>273.63</ele>
        <time>2012-09-25T13:05:49Z</time>
      </trkpt>
      <trkpt lat="43.38946" lon="-0.18422">
        <ele>273.63</ele>
        <time>2012-09-25T13:05:59Z</time>
      </trkpt>
      <trkpt lat="43.38936" lon="-0.18429">
        <ele>274.11</ele>
        <time>2012-09-25T13:06:10Z</time>
      </trkpt>
      <trkpt lat="43.38927" lon="-0.18435">
        <ele>274.59</ele>
        <time>2012-09-25T13:06:20Z</time>
      </trkpt>
      <trkpt lat="43.38916" lon="-0.18436">
        <ele>274.59</ele>
        <time>2012-09-25T13:06:31Z</time>
      </trkpt>
      <trkpt lat="43.38907" lon="-0.18432">
        <ele>274.59</ele>
        <time>2012-09-25T13:06:40Z</time>
      </trkpt>
      <trkpt lat="43.38897" lon="-0.18427">
        <ele>274.59</ele>
        <time>2012-09-25T13:06:50Z</time>
      </trkpt>
      <trkpt lat="43.38888" lon="-0.1842">
        <ele>274.59</ele>
        <time>2012-09-25T13:06:59Z</time>
      </trkpt>
      <trkpt lat="43.3888" lon="-0.18412">
        <ele>275.07</ele>
        <time>2012-09-25T13:07:09Z</time>
      </trkpt>
      <trkpt lat="43.38872" lon="-0.18405">
        <ele>275.56</ele>
        <time>2012-09-25T13:07:19Z</time>
      </trkpt>
      <trkpt lat="43.38864" lon="-0.18399">
        <ele>276.04</ele>
        <time>2012-09-25T13:07:29Z</time>
      </trkpt>
      <trkpt lat="43.38856" lon="-0.18394">
        <ele>276.52</ele>
        <time>2012-09-25T13:07:38Z</time>
      </trkpt>
      <trkpt lat="43.38846" lon="-0.18388">
        <ele>276.52</ele>
        <time>2012-09-25T13:07:49Z</time>
      </trkpt>
      <trkpt lat="43.38834" lon="-0.18384">
        <ele>277</ele>
        <time>2012-09-25T13:07:59Z</time>
      </trkpt>
      <trkpt lat="43.38823" lon="-0.18381">
        <ele>277.48</ele>
        <time>2012-09-25T13:08:08Z</time>
      </trkpt>
      <trkpt lat="43.38814" lon="-0.18377">
        <ele>277.48</ele>
        <time>2012-09-25T13:08:16Z</time>
      </trkpt>
      <trkpt lat="43.38805" lon="-0.18375">
        <ele>277.96</ele>
        <time>2012-09-25T13:08:24Z</time>
      </trkpt>
      <trkpt lat="43.38797" lon="-0.18372">
        <ele>277.48</ele>
        <time>2012-09-25T13:08:33Z</time>
      </trkpt>
      <trkpt lat="43.38788" lon="-0.18367">
        <ele>277.48</ele>
        <time>2012-09-25T13:08:43Z</time>
      </trkpt>
      <trkpt lat="43.38778" lon="-0.18362">
        <ele>277.96</ele>
        <time>2012-09-25T13:08:53Z</time>
      </trkpt>
      <trkpt lat="43.38769" lon="-0.18357">
        <ele>278.44</ele>
        <time>2012-09-25T13:09:02Z</time>
      </trkpt>
      <trkpt lat="43.38758" lon="-0.18351">
        <ele>278.44</ele>
        <time>2012-09-25T13:09:11Z</time>
      </trkpt>
      <trkpt lat="43.38747" lon="-0.18347">
        <ele>278.44</ele>
        <time>2012-09-25T13:09:20Z</time>
      </trkpt>
      <trkpt lat="43.38737" lon="-0.18348">
        <ele>277.96</ele>
        <time>2012-09-25T13:09:28Z</time>
      </trkpt>
      <trkpt lat="43.38726" lon="-0.18351">
        <ele>277.96</ele>
        <time>2012-09-25T13:09:38Z</time>
      </trkpt>
      <trkpt lat="43.38718" lon="-0.1836">
        <ele>278.44</ele>
        <time>2012-09-25T13:09:49Z</time>
      </trkpt>
      <trkpt lat="43.38711" lon="-0.1837">
        <ele>278.44</ele>
        <time>2012-09-25T13:09:59Z</time>
      </trkpt>
      <trkpt lat="43.38705" lon="-0.18383">
        <ele>278.92</ele>
        <time>2012-09-25T13:10:08Z</time>
      </trkpt>
      <trkpt lat="43.387" lon="-0.18398">
        <ele>278.92</ele>
        <time>2012-09-25T13:10:18Z</time>
      </trkpt>
      <trkpt lat="43.38694" lon="-0.1841">
        <ele>279.88</ele>
        <time>2012-09-25T13:10:28Z</time>
      </trkpt>
      <trkpt lat="43.38689" lon="-0.18423">
        <ele>281.32</ele>
        <time>2012-09-25T13:10:41Z</time>
      </trkpt>
      <trkpt lat="43.38684" lon="-0.18437">
        <ele>282.28</ele>
        <time>2012-09-25T13:10:52Z</time>
      </trkpt>
      <trkpt lat="43.38676" lon="-0.18444">
        <ele>282.77</ele>
        <time>2012-09-25T13:11:03Z</time>
      </trkpt>
      <trkpt lat="43.38667" lon="-0.18443">
        <ele>282.77</ele>
        <time>2012-09-25T13:11:13Z</time>
      </trkpt>
      <trkpt lat="43.38658" lon="-0.18439">
        <ele>283.25</ele>
        <time>2012-09-25T13:11:22Z</time>
      </trkpt>
      <trkpt lat="43.38649" lon="-0.18432">
        <ele>283.25</ele>
        <time>2012-09-25T13:11:32Z</time>
      </trkpt>
      <trkpt lat="43.3864" lon="-0.18428">
        <ele>283.73</ele>
        <time>2012-09-25T13:11:40Z</time>
      </trkpt>
      <trkpt lat="43.3863" lon="-0.18424">
        <ele>283.73</ele>
        <time>2012-09-25T13:11:49Z</time>
      </trkpt>
      <trkpt lat="43.38618" lon="-0.18424">
        <ele>284.21</ele>
        <time>2012-09-25T13:11:59Z</time>
      </trkpt>
      <trkpt lat="43.38609" lon="-0.18426">
        <ele>284.69</ele>
        <time>2012-09-25T13:12:08Z</time>
      </trkpt>
      <trkpt lat="43.38599" lon="-0.18426">
        <ele>285.17</ele>
        <time>2012-09-25T13:12:17Z</time>
      </trkpt>
      <trkpt lat="43.38588" lon="-0.18426">
        <ele>285.17</ele>
        <time>2012-09-25T13:12:30Z</time>
      </trkpt>
      <trkpt lat="43.38578" lon="-0.18425">
        <ele>285.65</ele>
        <time>2012-09-25T13:12:39Z</time>
      </trkpt>
      <trkpt lat="43.38568" lon="-0.18423">
        <ele>285.17</ele>
        <time>2012-09-25T13:12:49Z</time>
      </trkpt>
      <trkpt lat="43.38556" lon="-0.18423">
        <ele>284.21</ele>
        <time>2012-09-25T13:13:00Z</time>
      </trkpt>
      <trkpt lat="43.38547" lon="-0.18422">
        <ele>283.73</ele>
        <time>2012-09-25T13:13:13Z</time>
      </trkpt>
      <trkpt lat="43.38543" lon="-0.18423">
        <ele>282.28</ele>
        <time>2012-09-25T13:19:22Z</time>
      </trkpt>
      <trkpt lat="43.38536" lon="-0.1842">
        <ele>283.73</ele>
        <time>2012-09-25T13:25:32Z</time>
      </trkpt>
      <trkpt lat="43.38524" lon="-0.18415">
        <ele>284.21</ele>
        <time>2012-09-25T13:25:46Z</time>
      </trkpt>
      <trkpt lat="43.38516" lon="-0.18414">
        <ele>284.69</ele>
        <time>2012-09-25T13:25:56Z</time>
      </trkpt>
      <trkpt lat="43.38506" lon="-0.18414">
        <ele>284.21</ele>
        <time>2012-09-25T13:26:06Z</time>
      </trkpt>
      <trkpt lat="43.38496" lon="-0.18414">
        <ele>284.21</ele>
        <time>2012-09-25T13:26:17Z</time>
      </trkpt>
      <trkpt lat="43.38485" lon="-0.18414">
        <ele>283.73</ele>
        <time>2012-09-25T13:26:28Z</time>
      </trkpt>
      <trkpt lat="43.38476" lon="-0.18415">
        <ele>283.73</ele>
        <time>2012-09-25T13:26:37Z</time>
      </trkpt>
      <trkpt lat="43.38465" lon="-0.18415">
        <ele>283.25</ele>
        <time>2012-09-25T13:26:47Z</time>
      </trkpt>
      <trkpt lat="43.38456" lon="-0.18414">
        <ele>284.69</ele>
        <time>2012-09-25T13:26:56Z</time>
      </trkpt>
      <trkpt lat="43.38444" lon="-0.18413">
        <ele>285.17</ele>
        <time>2012-09-25T13:27:06Z</time>
      </trkpt>
      <trkpt lat="43.38436" lon="-0.18415">
        <ele>285.17</ele>
        <time>2012-09-25T13:27:16Z</time>
      </trkpt>
      <trkpt lat="43.38425" lon="-0.18413">
        <ele>285.65</ele>
        <time>2012-09-25T13:27:25Z</time>
      </trkpt>
      <trkpt lat="43.38414" lon="-0.18412">
        <ele>285.65</ele>
        <time>2012-09-25T13:27:35Z</time>
      </trkpt>
      <trkpt lat="43.38405" lon="-0.18411">
        <ele>285.65</ele>
        <time>2012-09-25T13:27:44Z</time>
      </trkpt>
      <trkpt lat="43.38395" lon="-0.18412">
        <ele>285.65</ele>
        <time>2012-09-25T13:27:53Z</time>
      </trkpt>
      <trkpt lat="43.38385" lon="-0.18411">
        <ele>285.17</ele>
        <time>2012-09-25T13:28:02Z</time>
      </trkpt>
      <trkpt lat="43.38375" lon="-0.1841">
        <ele>284.69</ele>
        <time>2012-09-25T13:28:11Z</time>
      </trkpt>
      <trkpt lat="43.38365" lon="-0.18408">
        <ele>285.17</ele>
        <time>2012-09-25T13:28:20Z</time>
      </trkpt>
      <trkpt lat="43.38356" lon="-0.18407">
        <ele>285.17</ele>
        <time>2012-09-25T13:28:29Z</time>
      </trkpt>
      <trkpt lat="43.38346" lon="-0.18408">
        <ele>286.13</ele>
        <time>2012-09-25T13:28:38Z</time>
      </trkpt>
      <trkpt lat="43.38337" lon="-0.18407">
        <ele>287.57</ele>
        <time>2012-09-25T13:28:48Z</time>
      </trkpt>
      <trkpt lat="43.38327" lon="-0.18408">
        <ele>289.01</ele>
        <time>2012-09-25T13:28:59Z</time>
      </trkpt>
      <trkpt lat="43.38317" lon="-0.1841">
        <ele>290.46</ele>
        <time>2012-09-25T13:29:10Z</time>
      </trkpt>
      <trkpt lat="43.38306" lon="-0.18413">
        <ele>291.42</ele>
        <time>2012-09-25T13:29:20Z</time>
      </trkpt>
      <trkpt lat="43.38298" lon="-0.18421">
        <ele>291.9</ele>
        <time>2012-09-25T13:29:30Z</time>
      </trkpt>
      <trkpt lat="43.3829" lon="-0.18433">
        <ele>293.34</ele>
        <time>2012-09-25T13:29:40Z</time>
      </trkpt>
      <trkpt lat="43.38285" lon="-0.1845">
        <ele>295.26</ele>
        <time>2012-09-25T13:29:52Z</time>
      </trkpt>
      <trkpt lat="43.38282" lon="-0.18467">
        <ele>297.18</ele>
        <time>2012-09-25T13:30:06Z</time>
      </trkpt>
      <trkpt lat="43.38279" lon="-0.18484">
        <ele>298.15</ele>
        <time>2012-09-25T13:30:17Z</time>
      </trkpt>
      <trkpt lat="43.38278" lon="-0.185">
        <ele>299.59</ele>
        <time>2012-09-25T13:30:28Z</time>
      </trkpt>
      <trkpt lat="43.38276" lon="-0.18517">
        <ele>300.07</ele>
        <time>2012-09-25T13:30:40Z</time>
      </trkpt>
      <trkpt lat="43.38277" lon="-0.18531">
        <ele>301.03</ele>
        <time>2012-09-25T13:30:51Z</time>
      </trkpt>
      <trkpt lat="43.38276" lon="-0.18545">
        <ele>302.95</ele>
        <time>2012-09-25T13:31:05Z</time>
      </trkpt>
      <trkpt lat="43.38274" lon="-0.1856">
        <ele>304.39</ele>
        <time>2012-09-25T13:31:18Z</time>
      </trkpt>
      <trkpt lat="43.38271" lon="-0.18577">
        <ele>306.8</ele>
        <time>2012-09-25T13:31:33Z</time>
      </trkpt>
      <trkpt lat="43.38269" lon="-0.18589">
        <ele>308.24</ele>
        <time>2012-09-25T13:31:45Z</time>
      </trkpt>
      <trkpt lat="43.38263" lon="-0.18602">
        <ele>309.2</ele>
        <time>2012-09-25T13:31:58Z</time>
      </trkpt>
      <trkpt lat="43.38258" lon="-0.1861">
        <ele>310.64</ele>
        <time>2012-09-25T13:32:09Z</time>
      </trkpt>
      <trkpt lat="43.3825" lon="-0.18618">
        <ele>312.09</ele>
        <time>2012-09-25T13:32:20Z</time>
      </trkpt>
      <trkpt lat="43.38243" lon="-0.18622">
        <ele>313.05</ele>
        <time>2012-09-25T13:32:31Z</time>
      </trkpt>
      <trkpt lat="43.38234" lon="-0.18626">
        <ele>314.49</ele>
        <time>2012-09-25T13:32:42Z</time>
      </trkpt>
      <trkpt lat="43.38227" lon="-0.18633">
        <ele>315.45</ele>
        <time>2012-09-25T13:32:54Z</time>
      </trkpt>
      <trkpt lat="43.38218" lon="-0.1864">
        <ele>317.37</ele>
        <time>2012-09-25T13:33:06Z</time>
      </trkpt>
      <trkpt lat="43.38211" lon="-0.18648">
        <ele>318.81</ele>
        <time>2012-09-25T13:33:18Z</time>
      </trkpt>
      <trkpt lat="43.38205" lon="-0.18659">
        <ele>320.26</ele>
        <time>2012-09-25T13:33:30Z</time>
      </trkpt>
      <trkpt lat="43.382" lon="-0.18672">
        <ele>321.7</ele>
        <time>2012-09-25T13:33:41Z</time>
      </trkpt>
      <trkpt lat="43.38195" lon="-0.18684">
        <ele>323.14</ele>
        <time>2012-09-25T13:33:52Z</time>
      </trkpt>
      <trkpt lat="43.38189" lon="-0.18695">
        <ele>324.58</ele>
        <time>2012-09-25T13:34:03Z</time>
      </trkpt>
      <trkpt lat="43.38182" lon="-0.18706">
        <ele>325.06</ele>
        <time>2012-09-25T13:34:15Z</time>
      </trkpt>
      <trkpt lat="43.38174" lon="-0.18715">
        <ele>326.5</ele>
        <time>2012-09-25T13:34:26Z</time>
      </trkpt>
      <trkpt lat="43.38169" lon="-0.18707">
        <ele>326.99</ele>
        <time>2012-09-25T13:34:39Z</time>
      </trkpt>
      <trkpt lat="43.3817" lon="-0.18696">
        <ele>326.02</ele>
        <time>2012-09-25T13:34:56Z</time>
      </trkpt>
      <trkpt lat="43.38166" lon="-0.18684">
        <ele>326.02</ele>
        <time>2012-09-25T13:35:07Z</time>
      </trkpt>
      <trkpt lat="43.3816" lon="-0.18674">
        <ele>326.02</ele>
        <time>2012-09-25T13:35:17Z</time>
      </trkpt>
      <trkpt lat="43.38153" lon="-0.18664">
        <ele>326.02</ele>
        <time>2012-09-25T13:35:27Z</time>
      </trkpt>
      <trkpt lat="43.38146" lon="-0.18654">
        <ele>325.54</ele>
        <time>2012-09-25T13:35:36Z</time>
      </trkpt>
      <trkpt lat="43.3814" lon="-0.18644">
        <ele>325.06</ele>
        <time>2012-09-25T13:35:45Z</time>
      </trkpt>
      <trkpt lat="43.38134" lon="-0.18635">
        <ele>324.58</ele>
        <time>2012-09-25T13:35:55Z</time>
      </trkpt>
      <trkpt lat="43.38126" lon="-0.18626">
        <ele>325.06</ele>
        <time>2012-09-25T13:36:06Z</time>
      </trkpt>
      <trkpt lat="43.38118" lon="-0.18616">
        <ele>324.1</ele>
        <time>2012-09-25T13:36:16Z</time>
      </trkpt>
      <trkpt lat="43.3811" lon="-0.18608">
        <ele>323.14</ele>
        <time>2012-09-25T13:36:27Z</time>
      </trkpt>
      <trkpt lat="43.38104" lon="-0.18598">
        <ele>321.22</ele>
        <time>2012-09-25T13:36:38Z</time>
      </trkpt>
      <trkpt lat="43.381" lon="-0.18584">
        <ele>320.74</ele>
        <time>2012-09-25T13:36:50Z</time>
      </trkpt>
      <trkpt lat="43.38093" lon="-0.1857">
        <ele>319.78</ele>
        <time>2012-09-25T13:37:02Z</time>
      </trkpt>
      <trkpt lat="43.38086" lon="-0.18559">
        <ele>318.33</ele>
        <time>2012-09-25T13:37:13Z</time>
      </trkpt>
      <trkpt lat="43.38079" lon="-0.18548">
        <ele>317.85</ele>
        <time>2012-09-25T13:37:25Z</time>
      </trkpt>
      <trkpt lat="43.38071" lon="-0.18537">
        <ele>316.41</ele>
        <time>2012-09-25T13:37:36Z</time>
      </trkpt>
      <trkpt lat="43.38065" lon="-0.18525">
        <ele>315.45</ele>
        <time>2012-09-25T13:37:47Z</time>
      </trkpt>
      <trkpt lat="43.3806" lon="-0.18509">
        <ele>314.01</ele>
        <time>2012-09-25T13:37:58Z</time>
      </trkpt>
      <trkpt lat="43.38057" lon="-0.18496">
        <ele>313.05</ele>
        <time>2012-09-25T13:38:11Z</time>
      </trkpt>
      <trkpt lat="43.38052" lon="-0.18482">
        <ele>311.6</ele>
        <time>2012-09-25T13:38:24Z</time>
      </trkpt>
      <trkpt lat="43.38045" lon="-0.18469">
        <ele>309.68</ele>
        <time>2012-09-25T13:38:39Z</time>
      </trkpt>
      <trkpt lat="43.38033" lon="-0.18459">
        <ele>309.2</ele>
        <time>2012-09-25T13:38:53Z</time>
      </trkpt>
      <trkpt lat="43.38024" lon="-0.18449">
        <ele>307.76</ele>
        <time>2012-09-25T13:39:04Z</time>
      </trkpt>
      <trkpt lat="43.38013" lon="-0.1844">
        <ele>307.76</ele>
        <time>2012-09-25T13:39:16Z</time>
      </trkpt>
      <trkpt lat="43.38003" lon="-0.18434">
        <ele>308.24</ele>
        <time>2012-09-25T13:39:27Z</time>
      </trkpt>
      <trkpt lat="43.37993" lon="-0.1843">
        <ele>309.2</ele>
        <time>2012-09-25T13:39:37Z</time>
      </trkpt>
      <trkpt lat="43.37983" lon="-0.18426">
        <ele>309.2</ele>
        <time>2012-09-25T13:39:47Z</time>
      </trkpt>
      <trkpt lat="43.37972" lon="-0.1842">
        <ele>309.68</ele>
        <time>2012-09-25T13:39:57Z</time>
      </trkpt>
      <trkpt lat="43.37959" lon="-0.18416">
        <ele>310.16</ele>
        <time>2012-09-25T13:40:08Z</time>
      </trkpt>
      <trkpt lat="43.37948" lon="-0.18411">
        <ele>309.68</ele>
        <time>2012-09-25T13:40:19Z</time>
      </trkpt>
      <trkpt lat="43.37935" lon="-0.18408">
        <ele>309.68</ele>
        <time>2012-09-25T13:40:31Z</time>
      </trkpt>
      <trkpt lat="43.37925" lon="-0.18404">
        <ele>309.68</ele>
        <time>2012-09-25T13:40:41Z</time>
      </trkpt>
      <trkpt lat="43.37912" lon="-0.18402">
        <ele>307.28</ele>
        <time>2012-09-25T13:40:53Z</time>
      </trkpt>
      <trkpt lat="43.379" lon="-0.18399">
        <ele>305.36</ele>
        <time>2012-09-25T13:41:04Z</time>
      </trkpt>
      <trkpt lat="43.37889" lon="-0.18397">
        <ele>304.39</ele>
        <time>2012-09-25T13:41:15Z</time>
      </trkpt>
      <trkpt lat="43.37878" lon="-0.18395">
        <ele>302.95</ele>
        <time>2012-09-25T13:41:25Z</time>
      </trkpt>
      <trkpt lat="43.37868" lon="-0.18393">
        <ele>301.99</ele>
        <time>2012-09-25T13:41:36Z</time>
      </trkpt>
      <trkpt lat="43.37856" lon="-0.18391">
        <ele>301.03</ele>
        <time>2012-09-25T13:41:47Z</time>
      </trkpt>
      <trkpt lat="43.37845" lon="-0.18386">
        <ele>300.07</ele>
        <time>2012-09-25T13:41:57Z</time>
      </trkpt>
      <trkpt lat="43.37837" lon="-0.18381">
        <ele>300.07</ele>
        <time>2012-09-25T13:42:06Z</time>
      </trkpt>
      <trkpt lat="43.37828" lon="-0.18377">
        <ele>299.59</ele>
        <time>2012-09-25T13:42:15Z</time>
      </trkpt>
      <trkpt lat="43.37818" lon="-0.18373">
        <ele>299.59</ele>
        <time>2012-09-25T13:42:25Z</time>
      </trkpt>
      <trkpt lat="43.37808" lon="-0.18366">
        <ele>299.11</ele>
        <time>2012-09-25T13:42:34Z</time>
      </trkpt>
      <trkpt lat="43.378" lon="-0.18359">
        <ele>299.59</ele>
        <time>2012-09-25T13:42:44Z</time>
      </trkpt>
      <trkpt lat="43.37789" lon="-0.18354">
        <ele>299.11</ele>
        <time>2012-09-25T13:42:54Z</time>
      </trkpt>
      <trkpt lat="43.37779" lon="-0.18347">
        <ele>298.63</ele>
        <time>2012-09-25T13:43:03Z</time>
      </trkpt>
      <trkpt lat="43.3777" lon="-0.18341">
        <ele>298.63</ele>
        <time>2012-09-25T13:43:12Z</time>
      </trkpt>
      <trkpt lat="43.37761" lon="-0.18335">
        <ele>298.63</ele>
        <time>2012-09-25T13:43:20Z</time>
      </trkpt>
      <trkpt lat="43.37751" lon="-0.18331">
        <ele>298.63</ele>
        <time>2012-09-25T13:43:30Z</time>
      </trkpt>
      <trkpt lat="43.37742" lon="-0.18325">
        <ele>298.15</ele>
        <time>2012-09-25T13:43:39Z</time>
      </trkpt>
      <trkpt lat="43.37736" lon="-0.18334">
        <ele>299.11</ele>
        <time>2012-09-25T13:47:28Z</time>
      </trkpt>
      <trkpt lat="43.37734" lon="-0.18355">
        <ele>300.07</ele>
        <time>2012-09-25T13:47:41Z</time>
      </trkpt>
      <trkpt lat="43.3773" lon="-0.18368">
        <ele>301.03</ele>
        <time>2012-09-25T13:47:54Z</time>
      </trkpt>
      <trkpt lat="43.37721" lon="-0.18379">
        <ele>301.99</ele>
        <time>2012-09-25T13:48:05Z</time>
      </trkpt>
      <trkpt lat="43.37712" lon="-0.18385">
        <ele>302.95</ele>
        <time>2012-09-25T13:48:15Z</time>
      </trkpt>
      <trkpt lat="43.37704" lon="-0.18393">
        <ele>303.43</ele>
        <time>2012-09-25T13:48:25Z</time>
      </trkpt>
      <trkpt lat="43.37697" lon="-0.18402">
        <ele>304.39</ele>
        <time>2012-09-25T13:48:35Z</time>
      </trkpt>
      <trkpt lat="43.37688" lon="-0.18411">
        <ele>305.36</ele>
        <time>2012-09-25T13:48:45Z</time>
      </trkpt>
      <trkpt lat="43.3768" lon="-0.18415">
        <ele>305.84</ele>
        <time>2012-09-25T13:48:53Z</time>
      </trkpt>
      <trkpt lat="43.37672" lon="-0.18422">
        <ele>306.8</ele>
        <time>2012-09-25T13:49:02Z</time>
      </trkpt>
      <trkpt lat="43.37664" lon="-0.18424">
        <ele>307.28</ele>
        <time>2012-09-25T13:49:12Z</time>
      </trkpt>
      <trkpt lat="43.37654" lon="-0.18429">
        <ele>308.72</ele>
        <time>2012-09-25T13:49:23Z</time>
      </trkpt>
      <trkpt lat="43.37644" lon="-0.18436">
        <ele>310.64</ele>
        <time>2012-09-25T13:49:35Z</time>
      </trkpt>
      <trkpt lat="43.37635" lon="-0.18446">
        <ele>311.6</ele>
        <time>2012-09-25T13:49:45Z</time>
      </trkpt>
      <trkpt lat="43.37627" lon="-0.18456">
        <ele>312.09</ele>
        <time>2012-09-25T13:49:54Z</time>
      </trkpt>
      <trkpt lat="43.3762" lon="-0.18467">
        <ele>312.57</ele>
        <time>2012-09-25T13:50:03Z</time>
      </trkpt>
      <trkpt lat="43.37614" lon="-0.18477">
        <ele>313.53</ele>
        <time>2012-09-25T13:50:11Z</time>
      </trkpt>
      <trkpt lat="43.37607" lon="-0.18483">
        <ele>314.01</ele>
        <time>2012-09-25T13:50:20Z</time>
      </trkpt>
      <trkpt lat="43.37598" lon="-0.18485">
        <ele>314.97</ele>
        <time>2012-09-25T13:50:29Z</time>
      </trkpt>
      <trkpt lat="43.3759" lon="-0.18484">
        <ele>315.45</ele>
        <time>2012-09-25T13:50:38Z</time>
      </trkpt>
      <trkpt lat="43.37581" lon="-0.18482">
        <ele>316.41</ele>
        <time>2012-09-25T13:50:47Z</time>
      </trkpt>
      <trkpt lat="43.37571" lon="-0.18481">
        <ele>317.37</ele>
        <time>2012-09-25T13:50:56Z</time>
      </trkpt>
      <trkpt lat="43.37563" lon="-0.18485">
        <ele>318.81</ele>
        <time>2012-09-25T13:51:05Z</time>
      </trkpt>
      <trkpt lat="43.37553" lon="-0.18491">
        <ele>319.3</ele>
        <time>2012-09-25T13:51:14Z</time>
      </trkpt>
      <trkpt lat="43.37545" lon="-0.18498">
        <ele>319.78</ele>
        <time>2012-09-25T13:51:22Z</time>
      </trkpt>
      <trkpt lat="43.37537" lon="-0.18506">
        <ele>320.74</ele>
        <time>2012-09-25T13:51:31Z</time>
      </trkpt>
      <trkpt lat="43.37529" lon="-0.18513">
        <ele>322.18</ele>
        <time>2012-09-25T13:51:41Z</time>
      </trkpt>
      <trkpt lat="43.37519" lon="-0.18525">
        <ele>322.66</ele>
        <time>2012-09-25T13:51:54Z</time>
      </trkpt>
      <trkpt lat="43.37511" lon="-0.18538">
        <ele>324.1</ele>
        <time>2012-09-25T13:52:04Z</time>
      </trkpt>
      <trkpt lat="43.37504" lon="-0.1855">
        <ele>325.06</ele>
        <time>2012-09-25T13:52:14Z</time>
      </trkpt>
      <trkpt lat="43.37498" lon="-0.1856">
        <ele>325.06</ele>
        <time>2012-09-25T13:52:23Z</time>
      </trkpt>
      <trkpt lat="43.37493" lon="-0.18568">
        <ele>326.02</ele>
        <time>2012-09-25T13:52:32Z</time>
      </trkpt>
      <trkpt lat="43.37486" lon="-0.18578">
        <ele>326.5</ele>
        <time>2012-09-25T13:52:41Z</time>
      </trkpt>
      <trkpt lat="43.3748" lon="-0.18586">
        <ele>327.95</ele>
        <time>2012-09-25T13:52:50Z</time>
      </trkpt>
      <trkpt lat="43.37474" lon="-0.18596">
        <ele>328.91</ele>
        <time>2012-09-25T13:52:59Z</time>
      </trkpt>
      <trkpt lat="43.37467" lon="-0.18606">
        <ele>329.87</ele>
        <time>2012-09-25T13:53:08Z</time>
      </trkpt>
      <trkpt lat="43.37461" lon="-0.18615">
        <ele>330.83</ele>
        <time>2012-09-25T13:53:18Z</time>
      </trkpt>
      <trkpt lat="43.37455" lon="-0.18624">
        <ele>331.79</ele>
        <time>2012-09-25T13:53:27Z</time>
      </trkpt>
      <trkpt lat="43.37448" lon="-0.18634">
        <ele>333.23</ele>
        <time>2012-09-25T13:53:36Z</time>
      </trkpt>
      <trkpt lat="43.37442" lon="-0.18642">
        <ele>333.23</ele>
        <time>2012-09-25T13:53:45Z</time>
      </trkpt>
      <trkpt lat="43.37436" lon="-0.18653">
        <ele>333.71</ele>
        <time>2012-09-25T13:53:53Z</time>
      </trkpt>
      <trkpt lat="43.3743" lon="-0.18663">
        <ele>334.68</ele>
        <time>2012-09-25T13:54:02Z</time>
      </trkpt>
      <trkpt lat="43.37424" lon="-0.18673">
        <ele>335.16</ele>
        <time>2012-09-25T13:54:11Z</time>
      </trkpt>
      <trkpt lat="43.37418" lon="-0.18683">
        <ele>335.16</ele>
        <time>2012-09-25T13:54:19Z</time>
      </trkpt>
      <trkpt lat="43.37412" lon="-0.18692">
        <ele>336.12</ele>
        <time>2012-09-25T13:54:27Z</time>
      </trkpt>
      <trkpt lat="43.37406" lon="-0.18701">
        <ele>336.6</ele>
        <time>2012-09-25T13:54:35Z</time>
      </trkpt>
      <trkpt lat="43.374" lon="-0.1871">
        <ele>336.6</ele>
        <time>2012-09-25T13:54:43Z</time>
      </trkpt>
      <trkpt lat="43.37395" lon="-0.18718">
        <ele>337.08</ele>
        <time>2012-09-25T13:54:51Z</time>
      </trkpt>
      <trkpt lat="43.37388" lon="-0.18727">
        <ele>337.56</ele>
        <time>2012-09-25T13:54:59Z</time>
      </trkpt>
      <trkpt lat="43.37383" lon="-0.18737">
        <ele>338.52</ele>
        <time>2012-09-25T13:55:07Z</time>
      </trkpt>
      <trkpt lat="43.37377" lon="-0.18747">
        <ele>339</ele>
        <time>2012-09-25T13:55:16Z</time>
      </trkpt>
      <trkpt lat="43.37371" lon="-0.18756">
        <ele>339</ele>
        <time>2012-09-25T13:55:24Z</time>
      </trkpt>
      <trkpt lat="43.37365" lon="-0.18765">
        <ele>339.48</ele>
        <time>2012-09-25T13:55:33Z</time>
      </trkpt>
      <trkpt lat="43.37361" lon="-0.18771">
        <ele>340.44</ele>
        <time>2012-09-25T13:58:21Z</time>
      </trkpt>
      <trkpt lat="43.37355" lon="-0.18782">
        <ele>340.44</ele>
        <time>2012-09-25T13:58:31Z</time>
      </trkpt>
      <trkpt lat="43.37349" lon="-0.18791">
        <ele>340.44</ele>
        <time>2012-09-25T13:58:41Z</time>
      </trkpt>
      <trkpt lat="43.37345" lon="-0.18801">
        <ele>340.44</ele>
        <time>2012-09-25T13:58:50Z</time>
      </trkpt>
      <trkpt lat="43.3734" lon="-0.18811">
        <ele>341.41</ele>
        <time>2012-09-25T13:58:59Z</time>
      </trkpt>
      <trkpt lat="43.37335" lon="-0.18821">
        <ele>341.41</ele>
        <time>2012-09-25T13:59:08Z</time>
      </trkpt>
      <trkpt lat="43.37331" lon="-0.18832">
        <ele>341.41</ele>
        <time>2012-09-25T13:59:16Z</time>
      </trkpt>
      <trkpt lat="43.37326" lon="-0.18842">
        <ele>341.41</ele>
        <time>2012-09-25T13:59:24Z</time>
      </trkpt>
      <trkpt lat="43.37321" lon="-0.18851">
        <ele>341.41</ele>
        <time>2012-09-25T13:59:34Z</time>
      </trkpt>
      <trkpt lat="43.37313" lon="-0.18858">
        <ele>341.89</ele>
        <time>2012-09-25T13:59:43Z</time>
      </trkpt>
      <trkpt lat="43.37305" lon="-0.18865">
        <ele>341.89</ele>
        <time>2012-09-25T13:59:52Z</time>
      </trkpt>
      <trkpt lat="43.37298" lon="-0.18873">
        <ele>342.37</ele>
        <time>2012-09-25T14:00:01Z</time>
      </trkpt>
      <trkpt lat="43.37292" lon="-0.18881">
        <ele>341.89</ele>
        <time>2012-09-25T14:00:09Z</time>
      </trkpt>
      <trkpt lat="43.37285" lon="-0.18889">
        <ele>342.37</ele>
        <time>2012-09-25T14:00:18Z</time>
      </trkpt>
      <trkpt lat="43.37277" lon="-0.18896">
        <ele>342.37</ele>
        <time>2012-09-25T14:00:26Z</time>
      </trkpt>
      <trkpt lat="43.3727" lon="-0.18905">
        <ele>342.37</ele>
        <time>2012-09-25T14:00:34Z</time>
      </trkpt>
      <trkpt lat="43.37263" lon="-0.18912">
        <ele>342.37</ele>
        <time>2012-09-25T14:00:42Z</time>
      </trkpt>
      <trkpt lat="43.37256" lon="-0.18919">
        <ele>342.37</ele>
        <time>2012-09-25T14:00:50Z</time>
      </trkpt>
      <trkpt lat="43.3725" lon="-0.18928">
        <ele>342.37</ele>
        <time>2012-09-25T14:00:58Z</time>
      </trkpt>
      <trkpt lat="43.37244" lon="-0.18936">
        <ele>342.37</ele>
        <time>2012-09-25T14:01:06Z</time>
      </trkpt>
      <trkpt lat="43.37236" lon="-0.18944">
        <ele>341.41</ele>
        <time>2012-09-25T14:01:14Z</time>
      </trkpt>
      <trkpt lat="43.3723" lon="-0.18951">
        <ele>341.41</ele>
        <time>2012-09-25T14:01:22Z</time>
      </trkpt>
      <trkpt lat="43.37223" lon="-0.1896">
        <ele>341.41</ele>
        <time>2012-09-25T14:01:30Z</time>
      </trkpt>
      <trkpt lat="43.37216" lon="-0.18968">
        <ele>340.92</ele>
        <time>2012-09-25T14:01:38Z</time>
      </trkpt>
      <trkpt lat="43.37209" lon="-0.18977">
        <ele>341.41</ele>
        <time>2012-09-25T14:01:46Z</time>
      </trkpt>
      <trkpt lat="43.37202" lon="-0.18985">
        <ele>340.92</ele>
        <time>2012-09-25T14:01:54Z</time>
      </trkpt>
      <trkpt lat="43.37195" lon="-0.18993">
        <ele>340.92</ele>
        <time>2012-09-25T14:02:02Z</time>
      </trkpt>
      <trkpt lat="43.37188" lon="-0.19001">
        <ele>340.92</ele>
        <time>2012-09-25T14:02:10Z</time>
      </trkpt>
      <trkpt lat="43.37182" lon="-0.19009">
        <ele>341.41</ele>
        <time>2012-09-25T14:02:18Z</time>
      </trkpt>
      <trkpt lat="43.37175" lon="-0.19017">
        <ele>341.41</ele>
        <time>2012-09-25T14:02:26Z</time>
      </trkpt>
      <trkpt lat="43.37168" lon="-0.19026">
        <ele>341.89</ele>
        <time>2012-09-25T14:02:34Z</time>
      </trkpt>
      <trkpt lat="43.37161" lon="-0.19031">
        <ele>341.41</ele>
        <time>2012-09-25T14:02:43Z</time>
      </trkpt>
      <trkpt lat="43.37152" lon="-0.19035">
        <ele>341.41</ele>
        <time>2012-09-25T14:02:52Z</time>
      </trkpt>
      <trkpt lat="43.37144" lon="-0.19039">
        <ele>341.41</ele>
        <time>2012-09-25T14:02:59Z</time>
      </trkpt>
      <trkpt lat="43.37135" lon="-0.19045">
        <ele>341.41</ele>
        <time>2012-09-25T14:03:07Z</time>
      </trkpt>
      <trkpt lat="43.37127" lon="-0.19051">
        <ele>341.41</ele>
        <time>2012-09-25T14:03:15Z</time>
      </trkpt>
      <trkpt lat="43.37119" lon="-0.19059">
        <ele>341.89</ele>
        <time>2012-09-25T14:03:23Z</time>
      </trkpt>
      <trkpt lat="43.37112" lon="-0.19067">
        <ele>341.41</ele>
        <time>2012-09-25T14:03:31Z</time>
      </trkpt>
      <trkpt lat="43.37104" lon="-0.19074">
        <ele>341.41</ele>
        <time>2012-09-25T14:03:39Z</time>
      </trkpt>
      <trkpt lat="43.37097" lon="-0.19082">
        <ele>341.89</ele>
        <time>2012-09-25T14:03:47Z</time>
      </trkpt>
      <trkpt lat="43.37089" lon="-0.19089">
        <ele>341.89</ele>
        <time>2012-09-25T14:03:55Z</time>
      </trkpt>
      <trkpt lat="43.37082" lon="-0.19096">
        <ele>342.37</ele>
        <time>2012-09-25T14:04:03Z</time>
      </trkpt>
      <trkpt lat="43.37075" lon="-0.19104">
        <ele>342.37</ele>
        <time>2012-09-25T14:04:11Z</time>
      </trkpt>
      <trkpt lat="43.37068" lon="-0.19112">
        <ele>342.37</ele>
        <time>2012-09-25T14:04:19Z</time>
      </trkpt>
      <trkpt lat="43.3706" lon="-0.19121">
        <ele>342.37</ele>
        <time>2012-09-25T14:04:28Z</time>
      </trkpt>
      <trkpt lat="43.37053" lon="-0.19128">
        <ele>342.37</ele>
        <time>2012-09-25T14:04:36Z</time>
      </trkpt>
      <trkpt lat="43.37046" lon="-0.19136">
        <ele>342.37</ele>
        <time>2012-09-25T14:04:44Z</time>
      </trkpt>
      <trkpt lat="43.37039" lon="-0.19144">
        <ele>342.37</ele>
        <time>2012-09-25T14:04:52Z</time>
      </trkpt>
      <trkpt lat="43.37032" lon="-0.19153">
        <ele>342.85</ele>
        <time>2012-09-25T14:05:00Z</time>
      </trkpt>
      <trkpt lat="43.37025" lon="-0.19161">
        <ele>342.85</ele>
        <time>2012-09-25T14:05:08Z</time>
      </trkpt>
      <trkpt lat="43.37018" lon="-0.19169">
        <ele>342.85</ele>
        <time>2012-09-25T14:05:16Z</time>
      </trkpt>
      <trkpt lat="43.37012" lon="-0.19177">
        <ele>342.37</ele>
        <time>2012-09-25T14:05:24Z</time>
      </trkpt>
      <trkpt lat="43.37004" lon="-0.19186">
        <ele>342.85</ele>
        <time>2012-09-25T14:05:32Z</time>
      </trkpt>
      <trkpt lat="43.36998" lon="-0.19194">
        <ele>341.89</ele>
        <time>2012-09-25T14:05:40Z</time>
      </trkpt>
      <trkpt lat="43.36991" lon="-0.19205">
        <ele>341.41</ele>
        <time>2012-09-25T14:05:49Z</time>
      </trkpt>
      <trkpt lat="43.36987" lon="-0.19216">
        <ele>341.41</ele>
        <time>2012-09-25T14:05:56Z</time>
      </trkpt>
      <trkpt lat="43.36985" lon="-0.1923">
        <ele>340.92</ele>
        <time>2012-09-25T14:06:02Z</time>
      </trkpt>
      <trkpt lat="43.36986" lon="-0.19243">
        <ele>340.44</ele>
        <time>2012-09-25T14:06:09Z</time>
      </trkpt>
      <trkpt lat="43.36988" lon="-0.19255">
        <ele>339.96</ele>
        <time>2012-09-25T14:06:16Z</time>
      </trkpt>
      <trkpt lat="43.3699" lon="-0.19268">
        <ele>339.96</ele>
        <time>2012-09-25T14:06:26Z</time>
      </trkpt>
      <trkpt lat="43.36991" lon="-0.19279">
        <ele>339.48</ele>
        <time>2012-09-25T14:06:43Z</time>
      </trkpt>
      <trkpt lat="43.36992" lon="-0.19285">
        <ele>338.52</ele>
        <time>2012-09-25T14:09:20Z</time>
      </trkpt>
      <trkpt lat="43.36993" lon="-0.19279">
        <ele>339</ele>
        <time>2012-09-25T14:10:05Z</time>
      </trkpt>
      <trkpt lat="43.37" lon="-0.19281">
        <ele>338.04</ele>
        <time>2012-09-25T14:11:37Z</time>
      </trkpt>
      <trkpt lat="43.36997" lon="-0.19277">
        <ele>340.92</ele>
        <time>2012-09-25T14:24:31Z</time>
      </trkpt>
      <trkpt lat="43.36993" lon="-0.19273">
        <ele>341.41</ele>
        <time>2012-09-25T14:27:38Z</time>
      </trkpt>
      <trkpt lat="43.36993" lon="-0.19272">
        <ele>341.89</ele>
        <time>2012-09-25T14:28:54Z</time>
      </trkpt>
      <trkpt lat="43.36993" lon="-0.19273">
        <ele>341.41</ele>
        <time>2012-09-25T14:29:46Z</time>
      </trkpt>
      <trkpt lat="43.36994" lon="-0.19276">
        <ele>340.92</ele>
        <time>2012-09-25T14:32:08Z</time>
      </trkpt>
      <trkpt lat="43.37001" lon="-0.19282">
        <ele>340.92</ele>
        <time>2012-09-25T14:32:32Z</time>
      </trkpt>
      <trkpt lat="43.37009" lon="-0.1929">
        <ele>340.44</ele>
        <time>2012-09-25T14:32:44Z</time>
      </trkpt>
      <trkpt lat="43.37015" lon="-0.19301">
        <ele>340.44</ele>
        <time>2012-09-25T14:32:54Z</time>
      </trkpt>
      <trkpt lat="43.3702" lon="-0.19314">
        <ele>339.48</ele>
        <time>2012-09-25T14:33:04Z</time>
      </trkpt>
      <trkpt lat="43.37025" lon="-0.19326">
        <ele>339.48</ele>
        <time>2012-09-25T14:33:13Z</time>
      </trkpt>
      <trkpt lat="43.3703" lon="-0.19339">
        <ele>338.52</ele>
        <time>2012-09-25T14:33:24Z</time>
      </trkpt>
      <trkpt lat="43.37036" lon="-0.19351">
        <ele>338.52</ele>
        <time>2012-09-25T14:33:36Z</time>
      </trkpt>
      <trkpt lat="43.37043" lon="-0.19366">
        <ele>337.56</ele>
        <time>2012-09-25T14:33:48Z</time>
      </trkpt>
      <trkpt lat="43.37048" lon="-0.19382">
        <ele>337.08</ele>
        <time>2012-09-25T14:33:58Z</time>
      </trkpt>
      <trkpt lat="43.37052" lon="-0.19399">
        <ele>336.6</ele>
        <time>2012-09-25T14:34:08Z</time>
      </trkpt>
      <trkpt lat="43.37058" lon="-0.19416">
        <ele>336.6</ele>
        <time>2012-09-25T14:34:19Z</time>
      </trkpt>
      <trkpt lat="43.37063" lon="-0.19429">
        <ele>336.12</ele>
        <time>2012-09-25T14:34:29Z</time>
      </trkpt>
      <trkpt lat="43.37069" lon="-0.19443">
        <ele>336.12</ele>
        <time>2012-09-25T14:34:39Z</time>
      </trkpt>
      <trkpt lat="43.37074" lon="-0.19455">
        <ele>336.12</ele>
        <time>2012-09-25T14:34:49Z</time>
      </trkpt>
      <trkpt lat="43.3708" lon="-0.19467">
        <ele>336.12</ele>
        <time>2012-09-25T14:34:59Z</time>
      </trkpt>
      <trkpt lat="43.37084" lon="-0.19487">
        <ele>335.64</ele>
        <time>2012-09-25T14:35:10Z</time>
      </trkpt>
      <trkpt lat="43.37089" lon="-0.19501">
        <ele>335.64</ele>
        <time>2012-09-25T14:35:20Z</time>
      </trkpt>
      <trkpt lat="43.37095" lon="-0.19513">
        <ele>335.16</ele>
        <time>2012-09-25T14:35:30Z</time>
      </trkpt>
      <trkpt lat="43.371" lon="-0.19525">
        <ele>334.68</ele>
        <time>2012-09-25T14:35:40Z</time>
      </trkpt>
      <trkpt lat="43.37105" lon="-0.19536">
        <ele>334.68</ele>
        <time>2012-09-25T14:35:49Z</time>
      </trkpt>
      <trkpt lat="43.37111" lon="-0.19545">
        <ele>334.2</ele>
        <time>2012-09-25T14:35:57Z</time>
      </trkpt>
      <trkpt lat="43.37118" lon="-0.19557">
        <ele>334.68</ele>
        <time>2012-09-25T14:36:06Z</time>
      </trkpt>
      <trkpt lat="43.37127" lon="-0.19569">
        <ele>334.2</ele>
        <time>2012-09-25T14:36:18Z</time>
      </trkpt>
      <trkpt lat="43.37136" lon="-0.19581">
        <ele>334.2</ele>
        <time>2012-09-25T14:36:28Z</time>
      </trkpt>
      <trkpt lat="43.37145" lon="-0.19593">
        <ele>333.71</ele>
        <time>2012-09-25T14:36:39Z</time>
      </trkpt>
      <trkpt lat="43.37153" lon="-0.19605">
        <ele>333.71</ele>
        <time>2012-09-25T14:36:51Z</time>
      </trkpt>
      <trkpt lat="43.37161" lon="-0.19617">
        <ele>333.23</ele>
        <time>2012-09-25T14:37:02Z</time>
      </trkpt>
      <trkpt lat="43.37169" lon="-0.19632">
        <ele>332.75</ele>
        <time>2012-09-25T14:37:14Z</time>
      </trkpt>
      <trkpt lat="43.37179" lon="-0.19647">
        <ele>332.75</ele>
        <time>2012-09-25T14:37:25Z</time>
      </trkpt>
      <trkpt lat="43.37186" lon="-0.19663">
        <ele>332.75</ele>
        <time>2012-09-25T14:37:35Z</time>
      </trkpt>
      <trkpt lat="43.37188" lon="-0.1968">
        <ele>331.79</ele>
        <time>2012-09-25T14:37:48Z</time>
      </trkpt>
      <trkpt lat="43.37182" lon="-0.19691">
        <ele>330.35</ele>
        <time>2012-09-25T14:38:00Z</time>
      </trkpt>
      <trkpt lat="43.37175" lon="-0.19703">
        <ele>328.43</ele>
        <time>2012-09-25T14:38:13Z</time>
      </trkpt>
      <trkpt lat="43.37167" lon="-0.19722">
        <ele>326.5</ele>
        <time>2012-09-25T14:38:27Z</time>
      </trkpt>
      <trkpt lat="43.3717" lon="-0.19742">
        <ele>325.54</ele>
        <time>2012-09-25T14:38:38Z</time>
      </trkpt>
      <trkpt lat="43.37175" lon="-0.19757">
        <ele>325.06</ele>
        <time>2012-09-25T14:38:51Z</time>
      </trkpt>
      <trkpt lat="43.37179" lon="-0.19771">
        <ele>324.1</ele>
        <time>2012-09-25T14:39:02Z</time>
      </trkpt>
      <trkpt lat="43.37183" lon="-0.19786">
        <ele>323.62</ele>
        <time>2012-09-25T14:39:13Z</time>
      </trkpt>
      <trkpt lat="43.3719" lon="-0.19801">
        <ele>322.18</ele>
        <time>2012-09-25T14:39:26Z</time>
      </trkpt>
      <trkpt lat="43.37198" lon="-0.19814">
        <ele>321.7</ele>
        <time>2012-09-25T14:39:37Z</time>
      </trkpt>
      <trkpt lat="43.37206" lon="-0.19829">
        <ele>320.26</ele>
        <time>2012-09-25T14:39:49Z</time>
      </trkpt>
      <trkpt lat="43.37212" lon="-0.19843">
        <ele>320.26</ele>
        <time>2012-09-25T14:39:59Z</time>
      </trkpt>
      <trkpt lat="43.3722" lon="-0.19856">
        <ele>319.78</ele>
        <time>2012-09-25T14:40:11Z</time>
      </trkpt>
      <trkpt lat="43.37225" lon="-0.19873">
        <ele>319.3</ele>
        <time>2012-09-25T14:40:22Z</time>
      </trkpt>
      <trkpt lat="43.3723" lon="-0.19886">
        <ele>319.3</ele>
        <time>2012-09-25T14:40:32Z</time>
      </trkpt>
      <trkpt lat="43.37234" lon="-0.19901">
        <ele>318.81</ele>
        <time>2012-09-25T14:40:41Z</time>
      </trkpt>
      <trkpt lat="43.3724" lon="-0.19912">
        <ele>318.81</ele>
        <time>2012-09-25T14:40:50Z</time>
      </trkpt>
      <trkpt lat="43.37247" lon="-0.19923">
        <ele>318.81</ele>
        <time>2012-09-25T14:41:01Z</time>
      </trkpt>
      <trkpt lat="43.37256" lon="-0.19934">
        <ele>319.3</ele>
        <time>2012-09-25T14:41:10Z</time>
      </trkpt>
      <trkpt lat="43.37263" lon="-0.19946">
        <ele>319.3</ele>
        <time>2012-09-25T14:41:20Z</time>
      </trkpt>
      <trkpt lat="43.37272" lon="-0.19956">
        <ele>318.33</ele>
        <time>2012-09-25T14:41:29Z</time>
      </trkpt>
      <trkpt lat="43.37279" lon="-0.19965">
        <ele>318.81</ele>
        <time>2012-09-25T14:41:37Z</time>
      </trkpt>
      <trkpt lat="43.37288" lon="-0.19974">
        <ele>318.33</ele>
        <time>2012-09-25T14:41:45Z</time>
      </trkpt>
      <trkpt lat="43.37295" lon="-0.19982">
        <ele>318.33</ele>
        <time>2012-09-25T14:41:53Z</time>
      </trkpt>
      <trkpt lat="43.37302" lon="-0.1999">
        <ele>317.85</ele>
        <time>2012-09-25T14:42:02Z</time>
      </trkpt>
      <trkpt lat="43.3731" lon="-0.19998">
        <ele>318.33</ele>
        <time>2012-09-25T14:42:10Z</time>
      </trkpt>
      <trkpt lat="43.37317" lon="-0.20007">
        <ele>317.85</ele>
        <time>2012-09-25T14:42:18Z</time>
      </trkpt>
      <trkpt lat="43.37324" lon="-0.20016">
        <ele>317.85</ele>
        <time>2012-09-25T14:42:26Z</time>
      </trkpt>
      <trkpt lat="43.37332" lon="-0.20025">
        <ele>317.37</ele>
        <time>2012-09-25T14:42:34Z</time>
      </trkpt>
      <trkpt lat="43.3734" lon="-0.20033">
        <ele>317.37</ele>
        <time>2012-09-25T14:42:42Z</time>
      </trkpt>
      <trkpt lat="43.37348" lon="-0.20041">
        <ele>316.89</ele>
        <time>2012-09-25T14:42:50Z</time>
      </trkpt>
      <trkpt lat="43.37355" lon="-0.20048">
        <ele>316.89</ele>
        <time>2012-09-25T14:42:58Z</time>
      </trkpt>
      <trkpt lat="43.37363" lon="-0.20057">
        <ele>316.41</ele>
        <time>2012-09-25T14:43:06Z</time>
      </trkpt>
      <trkpt lat="43.37371" lon="-0.20064">
        <ele>316.41</ele>
        <time>2012-09-25T14:43:14Z</time>
      </trkpt>
      <trkpt lat="43.37377" lon="-0.20073">
        <ele>316.41</ele>
        <time>2012-09-25T14:43:22Z</time>
      </trkpt>
      <trkpt lat="43.37385" lon="-0.20083">
        <ele>314.97</ele>
        <time>2012-09-25T14:43:31Z</time>
      </trkpt>
      <trkpt lat="43.37391" lon="-0.20094">
        <ele>315.45</ele>
        <time>2012-09-25T14:43:39Z</time>
      </trkpt>
      <trkpt lat="43.37398" lon="-0.20104">
        <ele>314.97</ele>
        <time>2012-09-25T14:43:47Z</time>
      </trkpt>
      <trkpt lat="43.37406" lon="-0.20111">
        <ele>314.49</ele>
        <time>2012-09-25T14:43:55Z</time>
      </trkpt>
      <trkpt lat="43.37414" lon="-0.20117">
        <ele>314.49</ele>
        <time>2012-09-25T14:44:03Z</time>
      </trkpt>
      <trkpt lat="43.37423" lon="-0.20124">
        <ele>314.01</ele>
        <time>2012-09-25T14:44:11Z</time>
      </trkpt>
      <trkpt lat="43.37431" lon="-0.2013">
        <ele>313.53</ele>
        <time>2012-09-25T14:44:19Z</time>
      </trkpt>
      <trkpt lat="43.37439" lon="-0.20136">
        <ele>313.53</ele>
        <time>2012-09-25T14:44:27Z</time>
      </trkpt>
      <trkpt lat="43.37448" lon="-0.20142">
        <ele>313.05</ele>
        <time>2012-09-25T14:44:35Z</time>
      </trkpt>
      <trkpt lat="43.37456" lon="-0.20149">
        <ele>312.57</ele>
        <time>2012-09-25T14:44:43Z</time>
      </trkpt>
      <trkpt lat="43.37465" lon="-0.20152">
        <ele>313.05</ele>
        <time>2012-09-25T14:44:52Z</time>
      </trkpt>
      <trkpt lat="43.37474" lon="-0.20146">
        <ele>313.05</ele>
        <time>2012-09-25T14:45:01Z</time>
      </trkpt>
      <trkpt lat="43.37482" lon="-0.20139">
        <ele>313.05</ele>
        <time>2012-09-25T14:45:09Z</time>
      </trkpt>
      <trkpt lat="43.37491" lon="-0.20132">
        <ele>314.01</ele>
        <time>2012-09-25T14:45:18Z</time>
      </trkpt>
      <trkpt lat="43.375" lon="-0.20125">
        <ele>314.49</ele>
        <time>2012-09-25T14:45:27Z</time>
      </trkpt>
      <trkpt lat="43.37508" lon="-0.2012">
        <ele>314.97</ele>
        <time>2012-09-25T14:45:36Z</time>
      </trkpt>
      <trkpt lat="43.37517" lon="-0.20115">
        <ele>314.97</ele>
        <time>2012-09-25T14:45:44Z</time>
      </trkpt>
      <trkpt lat="43.37526" lon="-0.20109">
        <ele>316.41</ele>
        <time>2012-09-25T14:45:54Z</time>
      </trkpt>
      <trkpt lat="43.37535" lon="-0.20105">
        <ele>316.41</ele>
        <time>2012-09-25T14:46:05Z</time>
      </trkpt>
      <trkpt lat="43.37544" lon="-0.20105">
        <ele>316.41</ele>
        <time>2012-09-25T14:46:58Z</time>
      </trkpt>
      <trkpt lat="43.37557" lon="-0.20094">
        <ele>318.81</ele>
        <time>2012-09-25T14:47:30Z</time>
      </trkpt>
      <trkpt lat="43.37566" lon="-0.20081">
        <ele>319.3</ele>
        <time>2012-09-25T14:47:42Z</time>
      </trkpt>
      <trkpt lat="43.37572" lon="-0.20068">
        <ele>319.3</ele>
        <time>2012-09-25T14:47:52Z</time>
      </trkpt>
      <trkpt lat="43.37576" lon="-0.20056">
        <ele>319.3</ele>
        <time>2012-09-25T14:48:03Z</time>
      </trkpt>
      <trkpt lat="43.37579" lon="-0.20042">
        <ele>319.78</ele>
        <time>2012-09-25T14:48:16Z</time>
      </trkpt>
      <trkpt lat="43.37582" lon="-0.20023">
        <ele>319.78</ele>
        <time>2012-09-25T14:48:28Z</time>
      </trkpt>
      <trkpt lat="43.37587" lon="-0.20006">
        <ele>320.74</ele>
        <time>2012-09-25T14:48:40Z</time>
      </trkpt>
      <trkpt lat="43.37588" lon="-0.19993">
        <ele>321.22</ele>
        <time>2012-09-25T14:48:52Z</time>
      </trkpt>
      <trkpt lat="43.3759" lon="-0.19986">
        <ele>323.62</ele>
        <time>2012-09-25T14:52:15Z</time>
      </trkpt>
      <trkpt lat="43.37594" lon="-0.19968">
        <ele>324.58</ele>
        <time>2012-09-25T14:52:26Z</time>
      </trkpt>
      <trkpt lat="43.37595" lon="-0.19953">
        <ele>325.06</ele>
        <time>2012-09-25T14:52:36Z</time>
      </trkpt>
      <trkpt lat="43.37595" lon="-0.19941">
        <ele>326.02</ele>
        <time>2012-09-25T14:52:45Z</time>
      </trkpt>
      <trkpt lat="43.37596" lon="-0.19928">
        <ele>326.02</ele>
        <time>2012-09-25T14:52:54Z</time>
      </trkpt>
      <trkpt lat="43.376" lon="-0.19913">
        <ele>326.5</ele>
        <time>2012-09-25T14:53:04Z</time>
      </trkpt>
      <trkpt lat="43.37603" lon="-0.199">
        <ele>327.47</ele>
        <time>2012-09-25T14:53:15Z</time>
      </trkpt>
      <trkpt lat="43.37611" lon="-0.19891">
        <ele>327.47</ele>
        <time>2012-09-25T14:53:24Z</time>
      </trkpt>
      <trkpt lat="43.37621" lon="-0.19884">
        <ele>327.47</ele>
        <time>2012-09-25T14:53:34Z</time>
      </trkpt>
      <trkpt lat="43.37629" lon="-0.19879">
        <ele>327.47</ele>
        <time>2012-09-25T14:53:42Z</time>
      </trkpt>
      <trkpt lat="43.37638" lon="-0.19873">
        <ele>328.43</ele>
        <time>2012-09-25T14:53:50Z</time>
      </trkpt>
      <trkpt lat="43.37647" lon="-0.19868">
        <ele>328.91</ele>
        <time>2012-09-25T14:53:58Z</time>
      </trkpt>
      <trkpt lat="43.37654" lon="-0.19861">
        <ele>329.87</ele>
        <time>2012-09-25T14:54:06Z</time>
      </trkpt>
      <trkpt lat="43.37663" lon="-0.19855">
        <ele>330.35</ele>
        <time>2012-09-25T14:54:14Z</time>
      </trkpt>
      <trkpt lat="43.37671" lon="-0.19848">
        <ele>330.35</ele>
        <time>2012-09-25T14:54:22Z</time>
      </trkpt>
      <trkpt lat="43.3768" lon="-0.19843">
        <ele>330.83</ele>
        <time>2012-09-25T14:54:30Z</time>
      </trkpt>
      <trkpt lat="43.37687" lon="-0.19837">
        <ele>331.31</ele>
        <time>2012-09-25T14:54:38Z</time>
      </trkpt>
      <trkpt lat="43.37696" lon="-0.1983">
        <ele>332.27</ele>
        <time>2012-09-25T14:54:46Z</time>
      </trkpt>
      <trkpt lat="43.37704" lon="-0.19825">
        <ele>332.75</ele>
        <time>2012-09-25T14:54:54Z</time>
      </trkpt>
      <trkpt lat="43.37713" lon="-0.1982">
        <ele>333.71</ele>
        <time>2012-09-25T14:55:02Z</time>
      </trkpt>
      <trkpt lat="43.37721" lon="-0.19814">
        <ele>334.2</ele>
        <time>2012-09-25T14:55:10Z</time>
      </trkpt>
      <trkpt lat="43.37729" lon="-0.19808">
        <ele>335.64</ele>
        <time>2012-09-25T14:55:18Z</time>
      </trkpt>
      <trkpt lat="43.37737" lon="-0.19803">
        <ele>336.12</ele>
        <time>2012-09-25T14:55:26Z</time>
      </trkpt>
      <trkpt lat="43.37746" lon="-0.19799">
        <ele>336.6</ele>
        <time>2012-09-25T14:55:35Z</time>
      </trkpt>
      <trkpt lat="43.37756" lon="-0.19795">
        <ele>337.56</ele>
        <time>2012-09-25T14:55:43Z</time>
      </trkpt>
      <trkpt lat="43.37765" lon="-0.19791">
        <ele>338.04</ele>
        <time>2012-09-25T14:55:51Z</time>
      </trkpt>
      <trkpt lat="43.37774" lon="-0.19787">
        <ele>339</ele>
        <time>2012-09-25T14:55:59Z</time>
      </trkpt>
      <trkpt lat="43.37783" lon="-0.19783">
        <ele>339</ele>
        <time>2012-09-25T14:56:07Z</time>
      </trkpt>
      <trkpt lat="43.37792" lon="-0.19779">
        <ele>339.48</ele>
        <time>2012-09-25T14:56:15Z</time>
      </trkpt>
      <trkpt lat="43.37801" lon="-0.19776">
        <ele>339.96</ele>
        <time>2012-09-25T14:56:23Z</time>
      </trkpt>
      <trkpt lat="43.3781" lon="-0.19772">
        <ele>340.44</ele>
        <time>2012-09-25T14:56:31Z</time>
      </trkpt>
      <trkpt lat="43.37819" lon="-0.19769">
        <ele>340.44</ele>
        <time>2012-09-25T14:56:39Z</time>
      </trkpt>
      <trkpt lat="43.37828" lon="-0.19768">
        <ele>340.44</ele>
        <time>2012-09-25T14:56:47Z</time>
      </trkpt>
      <trkpt lat="43.37838" lon="-0.19763">
        <ele>339.96</ele>
        <time>2012-09-25T14:56:56Z</time>
      </trkpt>
      <trkpt lat="43.37847" lon="-0.19758">
        <ele>339.96</ele>
        <time>2012-09-25T14:57:05Z</time>
      </trkpt>
      <trkpt lat="43.37857" lon="-0.19752">
        <ele>339.48</ele>
        <time>2012-09-25T14:57:13Z</time>
      </trkpt>
      <trkpt lat="43.37865" lon="-0.19748">
        <ele>339</ele>
        <time>2012-09-25T14:57:22Z</time>
      </trkpt>
      <trkpt lat="43.37873" lon="-0.19742">
        <ele>339</ele>
        <time>2012-09-25T14:57:30Z</time>
      </trkpt>
      <trkpt lat="43.37882" lon="-0.19735">
        <ele>338.52</ele>
        <time>2012-09-25T14:57:38Z</time>
      </trkpt>
      <trkpt lat="43.37889" lon="-0.19728">
        <ele>338.04</ele>
        <time>2012-09-25T14:57:46Z</time>
      </trkpt>
      <trkpt lat="43.37897" lon="-0.1972">
        <ele>338.04</ele>
        <time>2012-09-25T14:57:54Z</time>
      </trkpt>
      <trkpt lat="43.37904" lon="-0.19711">
        <ele>337.56</ele>
        <time>2012-09-25T14:58:02Z</time>
      </trkpt>
      <trkpt lat="43.37912" lon="-0.19703">
        <ele>337.56</ele>
        <time>2012-09-25T14:58:11Z</time>
      </trkpt>
      <trkpt lat="43.37921" lon="-0.19695">
        <ele>337.56</ele>
        <time>2012-09-25T14:58:19Z</time>
      </trkpt>
      <trkpt lat="43.37929" lon="-0.19685">
        <ele>337.08</ele>
        <time>2012-09-25T14:58:28Z</time>
      </trkpt>
      <trkpt lat="43.37938" lon="-0.19678">
        <ele>336.6</ele>
        <time>2012-09-25T14:58:37Z</time>
      </trkpt>
      <trkpt lat="43.37947" lon="-0.19672">
        <ele>336.6</ele>
        <time>2012-09-25T14:58:46Z</time>
      </trkpt>
      <trkpt lat="43.37955" lon="-0.19666">
        <ele>336.6</ele>
        <time>2012-09-25T14:58:54Z</time>
      </trkpt>
      <trkpt lat="43.37964" lon="-0.1966">
        <ele>336.12</ele>
        <time>2012-09-25T14:59:02Z</time>
      </trkpt>
      <trkpt lat="43.37973" lon="-0.19654">
        <ele>336.12</ele>
        <time>2012-09-25T14:59:11Z</time>
      </trkpt>
      <trkpt lat="43.37983" lon="-0.1965">
        <ele>335.64</ele>
        <time>2012-09-25T14:59:19Z</time>
      </trkpt>
      <trkpt lat="43.37992" lon="-0.19646">
        <ele>335.16</ele>
        <time>2012-09-25T14:59:27Z</time>
      </trkpt>
      <trkpt lat="43.38001" lon="-0.19643">
        <ele>335.16</ele>
        <time>2012-09-25T14:59:35Z</time>
      </trkpt>
      <trkpt lat="43.3801" lon="-0.19641">
        <ele>335.16</ele>
        <time>2012-09-25T14:59:43Z</time>
      </trkpt>
      <trkpt lat="43.3802" lon="-0.19639">
        <ele>334.2</ele>
        <time>2012-09-25T14:59:51Z</time>
      </trkpt>
      <trkpt lat="43.3803" lon="-0.19636">
        <ele>333.23</ele>
        <time>2012-09-25T15:00:00Z</time>
      </trkpt>
      <trkpt lat="43.38039" lon="-0.19634">
        <ele>333.23</ele>
        <time>2012-09-25T15:00:08Z</time>
      </trkpt>
      <trkpt lat="43.3805" lon="-0.19632">
        <ele>332.75</ele>
        <time>2012-09-25T15:00:16Z</time>
      </trkpt>
      <trkpt lat="43.3806" lon="-0.19628">
        <ele>332.27</ele>
        <time>2012-09-25T15:00:24Z</time>
      </trkpt>
      <trkpt lat="43.38068" lon="-0.19622">
        <ele>332.27</ele>
        <time>2012-09-25T15:00:30Z</time>
      </trkpt>
      <trkpt lat="43.38074" lon="-0.19621">
        <ele>331.79</ele>
        <time>2012-09-25T15:00:45Z</time>
      </trkpt>
      <trkpt lat="43.38083" lon="-0.19622">
        <ele>331.31</ele>
        <time>2012-09-25T15:00:55Z</time>
      </trkpt>
      <trkpt lat="43.38093" lon="-0.1962">
        <ele>331.79</ele>
        <time>2012-09-25T15:01:04Z</time>
      </trkpt>
      <trkpt lat="43.38102" lon="-0.19617">
        <ele>331.79</ele>
        <time>2012-09-25T15:01:13Z</time>
      </trkpt>
      <trkpt lat="43.38112" lon="-0.19614">
        <ele>331.79</ele>
        <time>2012-09-25T15:01:21Z</time>
      </trkpt>
      <trkpt lat="43.38121" lon="-0.19611">
        <ele>331.79</ele>
        <time>2012-09-25T15:01:29Z</time>
      </trkpt>
      <trkpt lat="43.3813" lon="-0.19608">
        <ele>331.79</ele>
        <time>2012-09-25T15:01:37Z</time>
      </trkpt>
      <trkpt lat="43.38139" lon="-0.19606">
        <ele>331.79</ele>
        <time>2012-09-25T15:01:45Z</time>
      </trkpt>
      <trkpt lat="43.38149" lon="-0.19603">
        <ele>332.75</ele>
        <time>2012-09-25T15:01:53Z</time>
      </trkpt>
      <trkpt lat="43.38158" lon="-0.196">
        <ele>332.75</ele>
        <time>2012-09-25T15:02:01Z</time>
      </trkpt>
      <trkpt lat="43.38168" lon="-0.19598">
        <ele>332.75</ele>
        <time>2012-09-25T15:02:10Z</time>
      </trkpt>
      <trkpt lat="43.38177" lon="-0.19595">
        <ele>333.71</ele>
        <time>2012-09-25T15:02:18Z</time>
      </trkpt>
      <trkpt lat="43.38186" lon="-0.19596">
        <ele>333.71</ele>
        <time>2012-09-25T15:02:26Z</time>
      </trkpt>
      <trkpt lat="43.38193" lon="-0.19608">
        <ele>333.71</ele>
        <time>2012-09-25T15:02:34Z</time>
      </trkpt>
      <trkpt lat="43.38196" lon="-0.19621">
        <ele>334.2</ele>
        <time>2012-09-25T15:02:42Z</time>
      </trkpt>
      <trkpt lat="43.38197" lon="-0.19634">
        <ele>333.71</ele>
        <time>2012-09-25T15:02:50Z</time>
      </trkpt>
      <trkpt lat="43.38198" lon="-0.19648">
        <ele>333.71</ele>
        <time>2012-09-25T15:02:58Z</time>
      </trkpt>
      <trkpt lat="43.382" lon="-0.1966">
        <ele>333.71</ele>
        <time>2012-09-25T15:03:06Z</time>
      </trkpt>
      <trkpt lat="43.38203" lon="-0.19673">
        <ele>333.71</ele>
        <time>2012-09-25T15:03:14Z</time>
      </trkpt>
      <trkpt lat="43.38208" lon="-0.19683">
        <ele>333.71</ele>
        <time>2012-09-25T15:03:21Z</time>
      </trkpt>
      <trkpt lat="43.38215" lon="-0.19693">
        <ele>333.71</ele>
        <time>2012-09-25T15:03:29Z</time>
      </trkpt>
      <trkpt lat="43.38223" lon="-0.19702">
        <ele>333.71</ele>
        <time>2012-09-25T15:03:37Z</time>
      </trkpt>
      <trkpt lat="43.38232" lon="-0.19709">
        <ele>334.2</ele>
        <time>2012-09-25T15:03:45Z</time>
      </trkpt>
      <trkpt lat="43.38241" lon="-0.19716">
        <ele>334.2</ele>
        <time>2012-09-25T15:03:53Z</time>
      </trkpt>
      <trkpt lat="43.3825" lon="-0.19722">
        <ele>334.2</ele>
        <time>2012-09-25T15:04:02Z</time>
      </trkpt>
      <trkpt lat="43.3826" lon="-0.19724">
        <ele>334.2</ele>
        <time>2012-09-25T15:04:10Z</time>
      </trkpt>
      <trkpt lat="43.3827" lon="-0.19725">
        <ele>334.2</ele>
        <time>2012-09-25T15:04:19Z</time>
      </trkpt>
      <trkpt lat="43.3828" lon="-0.19726">
        <ele>333.71</ele>
        <time>2012-09-25T15:04:27Z</time>
      </trkpt>
      <trkpt lat="43.3829" lon="-0.19726">
        <ele>334.2</ele>
        <time>2012-09-25T15:04:36Z</time>
      </trkpt>
      <trkpt lat="43.383" lon="-0.19729">
        <ele>334.2</ele>
        <time>2012-09-25T15:04:44Z</time>
      </trkpt>
      <trkpt lat="43.38309" lon="-0.19732">
        <ele>334.2</ele>
        <time>2012-09-25T15:04:52Z</time>
      </trkpt>
      <trkpt lat="43.38317" lon="-0.19739">
        <ele>334.68</ele>
        <time>2012-09-25T15:05:00Z</time>
      </trkpt>
      <trkpt lat="43.38324" lon="-0.19748">
        <ele>335.16</ele>
        <time>2012-09-25T15:05:08Z</time>
      </trkpt>
      <trkpt lat="43.3833" lon="-0.19759">
        <ele>335.16</ele>
        <time>2012-09-25T15:05:16Z</time>
      </trkpt>
      <trkpt lat="43.38335" lon="-0.1977">
        <ele>335.16</ele>
        <time>2012-09-25T15:05:24Z</time>
      </trkpt>
      <trkpt lat="43.38342" lon="-0.1978">
        <ele>335.64</ele>
        <time>2012-09-25T15:05:32Z</time>
      </trkpt>
      <trkpt lat="43.38348" lon="-0.19791">
        <ele>335.64</ele>
        <time>2012-09-25T15:05:40Z</time>
      </trkpt>
      <trkpt lat="43.38354" lon="-0.19802">
        <ele>336.12</ele>
        <time>2012-09-25T15:05:48Z</time>
      </trkpt>
      <trkpt lat="43.38361" lon="-0.19812">
        <ele>336.12</ele>
        <time>2012-09-25T15:05:56Z</time>
      </trkpt>
      <trkpt lat="43.38369" lon="-0.19821">
        <ele>336.12</ele>
        <time>2012-09-25T15:06:04Z</time>
      </trkpt>
      <trkpt lat="43.38377" lon="-0.19824">
        <ele>336.6</ele>
        <time>2012-09-25T15:06:54Z</time>
      </trkpt>
      <trkpt lat="43.38379" lon="-0.19819">
        <ele>337.08</ele>
        <time>2012-09-25T15:08:01Z</time>
      </trkpt>
      <trkpt lat="43.38387" lon="-0.19811">
        <ele>337.56</ele>
        <time>2012-09-25T15:08:12Z</time>
      </trkpt>
      <trkpt lat="43.38393" lon="-0.19803">
        <ele>337.56</ele>
        <time>2012-09-25T15:08:22Z</time>
      </trkpt>
      <trkpt lat="43.384" lon="-0.19793">
        <ele>337.56</ele>
        <time>2012-09-25T15:08:31Z</time>
      </trkpt>
      <trkpt lat="43.38406" lon="-0.19783">
        <ele>337.56</ele>
        <time>2012-09-25T15:08:39Z</time>
      </trkpt>
      <trkpt lat="43.38413" lon="-0.19775">
        <ele>337.56</ele>
        <time>2012-09-25T15:08:47Z</time>
      </trkpt>
      <trkpt lat="43.38419" lon="-0.19765">
        <ele>337.56</ele>
        <time>2012-09-25T15:08:55Z</time>
      </trkpt>
      <trkpt lat="43.38425" lon="-0.19754">
        <ele>337.56</ele>
        <time>2012-09-25T15:09:04Z</time>
      </trkpt>
      <trkpt lat="43.38431" lon="-0.19744">
        <ele>337.56</ele>
        <time>2012-09-25T15:09:12Z</time>
      </trkpt>
      <trkpt lat="43.38437" lon="-0.19735">
        <ele>337.56</ele>
        <time>2012-09-25T15:09:20Z</time>
      </trkpt>
      <trkpt lat="43.38443" lon="-0.19725">
        <ele>337.56</ele>
        <time>2012-09-25T15:09:28Z</time>
      </trkpt>
      <trkpt lat="43.38449" lon="-0.19715">
        <ele>337.08</ele>
        <time>2012-09-25T15:09:36Z</time>
      </trkpt>
      <trkpt lat="43.38455" lon="-0.19707">
        <ele>337.56</ele>
        <time>2012-09-25T15:09:44Z</time>
      </trkpt>
      <trkpt lat="43.38462" lon="-0.19698">
        <ele>337.08</ele>
        <time>2012-09-25T15:09:52Z</time>
      </trkpt>
      <trkpt lat="43.38469" lon="-0.19689">
        <ele>337.56</ele>
        <time>2012-09-25T15:10:01Z</time>
      </trkpt>
      <trkpt lat="43.38476" lon="-0.19681">
        <ele>337.08</ele>
        <time>2012-09-25T15:10:09Z</time>
      </trkpt>
      <trkpt lat="43.38483" lon="-0.19674">
        <ele>336.6</ele>
        <time>2012-09-25T15:10:16Z</time>
      </trkpt>
      <trkpt lat="43.38491" lon="-0.19665">
        <ele>336.6</ele>
        <time>2012-09-25T15:10:24Z</time>
      </trkpt>
      <trkpt lat="43.38499" lon="-0.19658">
        <ele>336.6</ele>
        <time>2012-09-25T15:10:32Z</time>
      </trkpt>
      <trkpt lat="43.38505" lon="-0.19648">
        <ele>336.12</ele>
        <time>2012-09-25T15:10:40Z</time>
      </trkpt>
      <trkpt lat="43.38512" lon="-0.19639">
        <ele>336.12</ele>
        <time>2012-09-25T15:10:48Z</time>
      </trkpt>
      <trkpt lat="43.38519" lon="-0.19631">
        <ele>335.64</ele>
        <time>2012-09-25T15:10:56Z</time>
      </trkpt>
      <trkpt lat="43.38527" lon="-0.19623">
        <ele>335.64</ele>
        <time>2012-09-25T15:11:04Z</time>
      </trkpt>
      <trkpt lat="43.38534" lon="-0.19616">
        <ele>335.64</ele>
        <time>2012-09-25T15:11:12Z</time>
      </trkpt>
      <trkpt lat="43.38541" lon="-0.19607">
        <ele>335.64</ele>
        <time>2012-09-25T15:11:20Z</time>
      </trkpt>
      <trkpt lat="43.38548" lon="-0.196">
        <ele>335.64</ele>
        <time>2012-09-25T15:11:28Z</time>
      </trkpt>
      <trkpt lat="43.38556" lon="-0.19592">
        <ele>335.64</ele>
        <time>2012-09-25T15:11:36Z</time>
      </trkpt>
      <trkpt lat="43.38563" lon="-0.19584">
        <ele>335.16</ele>
        <time>2012-09-25T15:11:44Z</time>
      </trkpt>
      <trkpt lat="43.3857" lon="-0.19576">
        <ele>334.68</ele>
        <time>2012-09-25T15:11:52Z</time>
      </trkpt>
      <trkpt lat="43.38578" lon="-0.19569">
        <ele>334.68</ele>
        <time>2012-09-25T15:12:00Z</time>
      </trkpt>
      <trkpt lat="43.38585" lon="-0.19561">
        <ele>334.68</ele>
        <time>2012-09-25T15:12:08Z</time>
      </trkpt>
      <trkpt lat="43.38591" lon="-0.19553">
        <ele>334.68</ele>
        <time>2012-09-25T15:12:16Z</time>
      </trkpt>
      <trkpt lat="43.38599" lon="-0.19545">
        <ele>334.68</ele>
        <time>2012-09-25T15:12:24Z</time>
      </trkpt>
      <trkpt lat="43.38607" lon="-0.19537">
        <ele>333.71</ele>
        <time>2012-09-25T15:12:32Z</time>
      </trkpt>
      <trkpt lat="43.38615" lon="-0.19529">
        <ele>333.71</ele>
        <time>2012-09-25T15:12:40Z</time>
      </trkpt>
      <trkpt lat="43.38622" lon="-0.19521">
        <ele>333.71</ele>
        <time>2012-09-25T15:12:48Z</time>
      </trkpt>
      <trkpt lat="43.3863" lon="-0.19514">
        <ele>333.71</ele>
        <time>2012-09-25T15:12:56Z</time>
      </trkpt>
      <trkpt lat="43.38637" lon="-0.19506">
        <ele>333.23</ele>
        <time>2012-09-25T15:13:04Z</time>
      </trkpt>
      <trkpt lat="43.38645" lon="-0.19498">
        <ele>332.75</ele>
        <time>2012-09-25T15:13:12Z</time>
      </trkpt>
      <trkpt lat="43.38652" lon="-0.1949">
        <ele>332.27</ele>
        <time>2012-09-25T15:13:20Z</time>
      </trkpt>
      <trkpt lat="43.3866" lon="-0.19482">
        <ele>332.27</ele>
        <time>2012-09-25T15:13:28Z</time>
      </trkpt>
      <trkpt lat="43.38668" lon="-0.19475">
        <ele>332.27</ele>
        <time>2012-09-25T15:13:43Z</time>
      </trkpt>
      <trkpt lat="43.38676" lon="-0.19468">
        <ele>332.27</ele>
        <time>2012-09-25T15:13:53Z</time>
      </trkpt>
      <trkpt lat="43.38681" lon="-0.19466">
        <ele>332.27</ele>
        <time>2012-09-25T15:14:06Z</time>
      </trkpt>
      <trkpt lat="43.38686" lon="-0.19458">
        <ele>332.27</ele>
        <time>2012-09-25T15:14:21Z</time>
      </trkpt>
      <trkpt lat="43.38694" lon="-0.19448">
        <ele>332.27</ele>
        <time>2012-09-25T15:14:32Z</time>
      </trkpt>
      <trkpt lat="43.38702" lon="-0.1944">
        <ele>332.75</ele>
        <time>2012-09-25T15:14:41Z</time>
      </trkpt>
      <trkpt lat="43.3871" lon="-0.19431">
        <ele>333.23</ele>
        <time>2012-09-25T15:14:51Z</time>
      </trkpt>
      <trkpt lat="43.38718" lon="-0.19423">
        <ele>333.23</ele>
        <time>2012-09-25T15:15:00Z</time>
      </trkpt>
      <trkpt lat="43.38726" lon="-0.19415">
        <ele>333.23</ele>
        <time>2012-09-25T15:15:09Z</time>
      </trkpt>
      <trkpt lat="43.38735" lon="-0.19406">
        <ele>333.23</ele>
        <time>2012-09-25T15:15:19Z</time>
      </trkpt>
      <trkpt lat="43.38743" lon="-0.19397">
        <ele>333.71</ele>
        <time>2012-09-25T15:15:29Z</time>
      </trkpt>
      <trkpt lat="43.3875" lon="-0.19387">
        <ele>333.71</ele>
        <time>2012-09-25T15:15:39Z</time>
      </trkpt>
      <trkpt lat="43.38758" lon="-0.1938">
        <ele>333.71</ele>
        <time>2012-09-25T15:15:48Z</time>
      </trkpt>
      <trkpt lat="43.38766" lon="-0.19372">
        <ele>334.2</ele>
        <time>2012-09-25T15:15:57Z</time>
      </trkpt>
      <trkpt lat="43.38775" lon="-0.19363">
        <ele>334.2</ele>
        <time>2012-09-25T15:16:06Z</time>
      </trkpt>
      <trkpt lat="43.38782" lon="-0.19355">
        <ele>334.2</ele>
        <time>2012-09-25T15:16:15Z</time>
      </trkpt>
      <trkpt lat="43.3879" lon="-0.19347">
        <ele>334.68</ele>
        <time>2012-09-25T15:16:23Z</time>
      </trkpt>
      <trkpt lat="43.38798" lon="-0.19338">
        <ele>334.2</ele>
        <time>2012-09-25T15:16:32Z</time>
      </trkpt>
      <trkpt lat="43.38806" lon="-0.19329">
        <ele>333.71</ele>
        <time>2012-09-25T15:16:42Z</time>
      </trkpt>
      <trkpt lat="43.38814" lon="-0.1932">
        <ele>333.71</ele>
        <time>2012-09-25T15:16:50Z</time>
      </trkpt>
      <trkpt lat="43.3882" lon="-0.1931">
        <ele>333.23</ele>
        <time>2012-09-25T15:16:59Z</time>
      </trkpt>
      <trkpt lat="43.38826" lon="-0.19295">
        <ele>333.23</ele>
        <time>2012-09-25T15:17:11Z</time>
      </trkpt>
      <trkpt lat="43.38832" lon="-0.19281">
        <ele>332.27</ele>
        <time>2012-09-25T15:17:20Z</time>
      </trkpt>
      <trkpt lat="43.38837" lon="-0.19269">
        <ele>331.79</ele>
        <time>2012-09-25T15:17:27Z</time>
      </trkpt>
      <trkpt lat="43.38842" lon="-0.19258">
        <ele>331.31</ele>
        <time>2012-09-25T15:17:34Z</time>
      </trkpt>
      <trkpt lat="43.38845" lon="-0.19245">
        <ele>331.31</ele>
        <time>2012-09-25T15:17:42Z</time>
      </trkpt>
      <trkpt lat="43.38848" lon="-0.19232">
        <ele>330.83</ele>
        <time>2012-09-25T15:17:50Z</time>
      </trkpt>
      <trkpt lat="43.38852" lon="-0.19219">
        <ele>330.83</ele>
        <time>2012-09-25T15:17:58Z</time>
      </trkpt>
      <trkpt lat="43.38855" lon="-0.19206">
        <ele>330.35</ele>
        <time>2012-09-25T15:18:06Z</time>
      </trkpt>
      <trkpt lat="43.38859" lon="-0.19194">
        <ele>330.83</ele>
        <time>2012-09-25T15:18:14Z</time>
      </trkpt>
      <trkpt lat="43.38866" lon="-0.19182">
        <ele>330.35</ele>
        <time>2012-09-25T15:18:22Z</time>
      </trkpt>
      <trkpt lat="43.38872" lon="-0.19172">
        <ele>330.83</ele>
        <time>2012-09-25T15:18:30Z</time>
      </trkpt>
      <trkpt lat="43.3888" lon="-0.19164">
        <ele>330.35</ele>
        <time>2012-09-25T15:18:38Z</time>
      </trkpt>
      <trkpt lat="43.38887" lon="-0.19154">
        <ele>330.83</ele>
        <time>2012-09-25T15:18:46Z</time>
      </trkpt>
      <trkpt lat="43.38895" lon="-0.19145">
        <ele>330.83</ele>
        <time>2012-09-25T15:18:54Z</time>
      </trkpt>
      <trkpt lat="43.38902" lon="-0.19134">
        <ele>330.35</ele>
        <time>2012-09-25T15:19:02Z</time>
      </trkpt>
      <trkpt lat="43.38908" lon="-0.19126">
        <ele>330.83</ele>
        <time>2012-09-25T15:19:09Z</time>
      </trkpt>
      <trkpt lat="43.38915" lon="-0.19117">
        <ele>330.83</ele>
        <time>2012-09-25T15:19:16Z</time>
      </trkpt>
      <trkpt lat="43.38923" lon="-0.19108">
        <ele>330.35</ele>
        <time>2012-09-25T15:19:23Z</time>
      </trkpt>
      <trkpt lat="43.38929" lon="-0.191">
        <ele>329.87</ele>
        <time>2012-09-25T15:19:30Z</time>
      </trkpt>
      <trkpt lat="43.38938" lon="-0.19091">
        <ele>329.87</ele>
        <time>2012-09-25T15:19:38Z</time>
      </trkpt>
      <trkpt lat="43.38945" lon="-0.19082">
        <ele>329.87</ele>
        <time>2012-09-25T15:19:46Z</time>
      </trkpt>
      <trkpt lat="43.38952" lon="-0.19071">
        <ele>328.91</ele>
        <time>2012-09-25T15:19:55Z</time>
      </trkpt>
      <trkpt lat="43.38956" lon="-0.1906">
        <ele>328.43</ele>
        <time>2012-09-25T15:20:05Z</time>
      </trkpt>
      <trkpt lat="43.38955" lon="-0.19047">
        <ele>328.91</ele>
        <time>2012-09-25T15:20:21Z</time>
      </trkpt>
      <trkpt lat="43.38954" lon="-0.19047">
        <ele>328.91</ele>
        <time>2012-09-25T15:21:17Z</time>
      </trkpt>
    </trkseg>
  </trk>
</gpx>